<?xml version="1.0" encoding="UTF-8" standalone="no" ?>
<gpx xmlns="http://www.topografix.com/GPX/1/1" xmlns:xsi="http://www.w3.org/2001/XMLSchema-instance" xsi:schemaLocation="http://www.topografix.com/GPX/1/1 http://www.topografix.com/GPX/1/1/gpx.xsd" version="1.1" creator="VisuGPX - https://www.visugpx.com">
  <metadata>
    <name>Le BEOUT 751m depuis Ossen</name>
    <desc><![CDATA[rando tres intéressante  que l'on peut considérer comme PR familial si on reste sur un Aller-Retour, et plus sportive si on fait une traversée.
On s'intéressera à la gare du télephérique, aux rocher mystérieurx et on appréciera le paysage.
Rando de proximité à recommander.

[url=http://eal-rando.blogspot.fr/2014/06/le-beout-751m-depuis-ossen.html]voir rando[/url] ]]></desc>
  </metadata>
  <trk>
    <name><![CDATA[BEOUTIN-14 12:24:49 PM]]></name>
    <trkseg>
      <trkpt lat="43.07024" lon="-0.06563">
        <ele>479.84</ele>
        <time>2014-06-26T07:45:39Z</time>
      </trkpt>
      <trkpt lat="43.0702" lon="-0.06558">
        <ele>479.35</ele>
        <time>2014-06-26T07:45:52Z</time>
      </trkpt>
      <trkpt lat="43.07015" lon="-0.06551">
        <ele>478.87</ele>
        <time>2014-06-26T07:46:03Z</time>
      </trkpt>
      <trkpt lat="43.07017" lon="-0.06552">
        <ele>478.87</ele>
        <time>2014-06-26T07:46:18Z</time>
      </trkpt>
      <trkpt lat="43.07015" lon="-0.06555">
        <ele>479.84</ele>
        <time>2014-06-26T07:46:32Z</time>
      </trkpt>
      <trkpt lat="43.07016" lon="-0.06548">
        <ele>479.35</ele>
        <time>2014-06-26T07:46:50Z</time>
      </trkpt>
      <trkpt lat="43.07015" lon="-0.06545">
        <ele>475.03</ele>
        <time>2014-06-26T07:47:02Z</time>
      </trkpt>
      <trkpt lat="43.07016" lon="-0.06545">
        <ele>481.28</ele>
        <time>2014-06-26T07:47:03Z</time>
      </trkpt>
      <trkpt lat="43.07017" lon="-0.06544">
        <ele>479.35</ele>
        <time>2014-06-26T07:47:04Z</time>
      </trkpt>
      <trkpt lat="43.07023" lon="-0.06529">
        <ele>477.91</ele>
        <time>2014-06-26T07:47:15Z</time>
      </trkpt>
      <trkpt lat="43.07027" lon="-0.06523">
        <ele>478.39</ele>
        <time>2014-06-26T07:47:25Z</time>
      </trkpt>
      <trkpt lat="43.07037" lon="-0.06531">
        <ele>478.39</ele>
        <time>2014-06-26T07:47:39Z</time>
      </trkpt>
      <trkpt lat="43.07038" lon="-0.06531">
        <ele>477.91</ele>
        <time>2014-06-26T07:47:40Z</time>
      </trkpt>
      <trkpt lat="43.07041" lon="-0.06534">
        <ele>477.91</ele>
        <time>2014-06-26T07:47:45Z</time>
      </trkpt>
      <trkpt lat="43.07043" lon="-0.06536">
        <ele>478.39</ele>
        <time>2014-06-26T07:47:53Z</time>
      </trkpt>
      <trkpt lat="43.07047" lon="-0.06539">
        <ele>478.87</ele>
        <time>2014-06-26T07:48:09Z</time>
      </trkpt>
      <trkpt lat="43.07047" lon="-0.06538">
        <ele>482.24</ele>
        <time>2014-06-26T07:48:17Z</time>
      </trkpt>
      <trkpt lat="43.07047" lon="-0.06538">
        <ele>485.6</ele>
        <time>2014-06-26T07:48:19Z</time>
      </trkpt>
      <trkpt lat="43.07047" lon="-0.06538">
        <ele>489.45</ele>
        <time>2014-06-26T07:48:21Z</time>
      </trkpt>
      <trkpt lat="43.07047" lon="-0.06538">
        <ele>492.33</ele>
        <time>2014-06-26T07:48:23Z</time>
      </trkpt>
      <trkpt lat="43.07047" lon="-0.06538">
        <ele>496.66</ele>
        <time>2014-06-26T07:48:26Z</time>
      </trkpt>
      <trkpt lat="43.07047" lon="-0.06538">
        <ele>500.02</ele>
        <time>2014-06-26T07:48:28Z</time>
      </trkpt>
      <trkpt lat="43.07047" lon="-0.06538">
        <ele>503.39</ele>
        <time>2014-06-26T07:48:31Z</time>
      </trkpt>
      <trkpt lat="43.07047" lon="-0.06538">
        <ele>507.23</ele>
        <time>2014-06-26T07:48:35Z</time>
      </trkpt>
      <trkpt lat="43.07047" lon="-0.06538">
        <ele>510.6</ele>
        <time>2014-06-26T07:48:38Z</time>
      </trkpt>
      <trkpt lat="43.07047" lon="-0.06538">
        <ele>513.96</ele>
        <time>2014-06-26T07:48:42Z</time>
      </trkpt>
      <trkpt lat="43.07047" lon="-0.06538">
        <ele>516.85</ele>
        <time>2014-06-26T07:48:46Z</time>
      </trkpt>
      <trkpt lat="43.07047" lon="-0.06538">
        <ele>519.73</ele>
        <time>2014-06-26T07:48:51Z</time>
      </trkpt>
      <trkpt lat="43.07047" lon="-0.06538">
        <ele>521.65</ele>
        <time>2014-06-26T07:48:55Z</time>
      </trkpt>
      <trkpt lat="43.07047" lon="-0.06538">
        <ele>525.02</ele>
        <time>2014-06-26T07:49:02Z</time>
      </trkpt>
      <trkpt lat="43.07047" lon="-0.06538">
        <ele>526.46</ele>
        <time>2014-06-26T07:49:05Z</time>
      </trkpt>
      <trkpt lat="43.07047" lon="-0.06534">
        <ele>527.9</ele>
        <time>2014-06-26T07:49:18Z</time>
      </trkpt>
      <trkpt lat="43.07049" lon="-0.06532">
        <ele>527.9</ele>
        <time>2014-06-26T07:49:21Z</time>
      </trkpt>
      <trkpt lat="43.07053" lon="-0.06528">
        <ele>526.94</ele>
        <time>2014-06-26T07:49:29Z</time>
      </trkpt>
      <trkpt lat="43.07064" lon="-0.06518">
        <ele>524.06</ele>
        <time>2014-06-26T07:49:45Z</time>
      </trkpt>
      <trkpt lat="43.07075" lon="-0.06507">
        <ele>522.13</ele>
        <time>2014-06-26T07:49:58Z</time>
      </trkpt>
      <trkpt lat="43.07086" lon="-0.06496">
        <ele>520.69</ele>
        <time>2014-06-26T07:50:12Z</time>
      </trkpt>
      <trkpt lat="43.07092" lon="-0.0649">
        <ele>519.25</ele>
        <time>2014-06-26T07:50:20Z</time>
      </trkpt>
      <trkpt lat="43.07096" lon="-0.06484">
        <ele>518.77</ele>
        <time>2014-06-26T07:50:25Z</time>
      </trkpt>
      <trkpt lat="43.07097" lon="-0.06483">
        <ele>519.25</ele>
        <time>2014-06-26T07:50:27Z</time>
      </trkpt>
      <trkpt lat="43.071" lon="-0.06481">
        <ele>518.77</ele>
        <time>2014-06-26T07:50:32Z</time>
      </trkpt>
      <trkpt lat="43.07102" lon="-0.06476">
        <ele>519.25</ele>
        <time>2014-06-26T07:50:37Z</time>
      </trkpt>
      <trkpt lat="43.07112" lon="-0.06462">
        <ele>518.29</ele>
        <time>2014-06-26T07:50:49Z</time>
      </trkpt>
      <trkpt lat="43.07115" lon="-0.0646">
        <ele>518.29</ele>
        <time>2014-06-26T07:50:51Z</time>
      </trkpt>
      <trkpt lat="43.07134" lon="-0.06456">
        <ele>517.33</ele>
        <time>2014-06-26T07:51:05Z</time>
      </trkpt>
      <trkpt lat="43.07146" lon="-0.06458">
        <ele>515.88</ele>
        <time>2014-06-26T07:51:14Z</time>
      </trkpt>
      <trkpt lat="43.07149" lon="-0.0646">
        <ele>515.88</ele>
        <time>2014-06-26T07:51:18Z</time>
      </trkpt>
      <trkpt lat="43.07154" lon="-0.0646">
        <ele>515.88</ele>
        <time>2014-06-26T07:51:22Z</time>
      </trkpt>
      <trkpt lat="43.07164" lon="-0.0646">
        <ele>513.48</ele>
        <time>2014-06-26T07:51:38Z</time>
      </trkpt>
      <trkpt lat="43.0719" lon="-0.06463">
        <ele>511.56</ele>
        <time>2014-06-26T07:51:56Z</time>
      </trkpt>
      <trkpt lat="43.07204" lon="-0.06468">
        <ele>509.64</ele>
        <time>2014-06-26T07:52:08Z</time>
      </trkpt>
      <trkpt lat="43.07218" lon="-0.06476">
        <ele>508.19</ele>
        <time>2014-06-26T07:52:22Z</time>
      </trkpt>
      <trkpt lat="43.07236" lon="-0.06488">
        <ele>505.79</ele>
        <time>2014-06-26T07:52:40Z</time>
      </trkpt>
      <trkpt lat="43.0724" lon="-0.0649">
        <ele>504.83</ele>
        <time>2014-06-26T07:52:45Z</time>
      </trkpt>
      <trkpt lat="43.07255" lon="-0.06493">
        <ele>503.39</ele>
        <time>2014-06-26T07:52:56Z</time>
      </trkpt>
      <trkpt lat="43.07272" lon="-0.06491">
        <ele>501.95</ele>
        <time>2014-06-26T07:53:08Z</time>
      </trkpt>
      <trkpt lat="43.07297" lon="-0.06485">
        <ele>501.46</ele>
        <time>2014-06-26T07:53:26Z</time>
      </trkpt>
      <trkpt lat="43.07298" lon="-0.06485">
        <ele>500.98</ele>
        <time>2014-06-26T07:53:27Z</time>
      </trkpt>
      <trkpt lat="43.07311" lon="-0.06484">
        <ele>502.43</ele>
        <time>2014-06-26T07:53:37Z</time>
      </trkpt>
      <trkpt lat="43.07316" lon="-0.06483">
        <ele>502.91</ele>
        <time>2014-06-26T07:53:41Z</time>
      </trkpt>
      <trkpt lat="43.07328" lon="-0.0648">
        <ele>504.35</ele>
        <time>2014-06-26T07:53:53Z</time>
      </trkpt>
      <trkpt lat="43.07334" lon="-0.06476">
        <ele>506.27</ele>
        <time>2014-06-26T07:54:02Z</time>
      </trkpt>
      <trkpt lat="43.07335" lon="-0.06474">
        <ele>506.27</ele>
        <time>2014-06-26T07:54:04Z</time>
      </trkpt>
      <trkpt lat="43.07342" lon="-0.06468">
        <ele>508.19</ele>
        <time>2014-06-26T07:54:17Z</time>
      </trkpt>
      <trkpt lat="43.0735" lon="-0.0646">
        <ele>510.12</ele>
        <time>2014-06-26T07:54:29Z</time>
      </trkpt>
      <trkpt lat="43.07352" lon="-0.06456">
        <ele>510.12</ele>
        <time>2014-06-26T07:54:32Z</time>
      </trkpt>
      <trkpt lat="43.0736" lon="-0.06449">
        <ele>512.04</ele>
        <time>2014-06-26T07:54:42Z</time>
      </trkpt>
      <trkpt lat="43.07366" lon="-0.06437">
        <ele>513.96</ele>
        <time>2014-06-26T07:54:58Z</time>
      </trkpt>
      <trkpt lat="43.07367" lon="-0.06421">
        <ele>515.4</ele>
        <time>2014-06-26T07:55:12Z</time>
      </trkpt>
      <trkpt lat="43.07374" lon="-0.06407">
        <ele>514.92</ele>
        <time>2014-06-26T07:55:24Z</time>
      </trkpt>
      <trkpt lat="43.07379" lon="-0.064">
        <ele>516.37</ele>
        <time>2014-06-26T07:55:34Z</time>
      </trkpt>
      <trkpt lat="43.07383" lon="-0.06392">
        <ele>517.33</ele>
        <time>2014-06-26T07:55:42Z</time>
      </trkpt>
      <trkpt lat="43.074" lon="-0.06384">
        <ele>518.77</ele>
        <time>2014-06-26T07:55:58Z</time>
      </trkpt>
      <trkpt lat="43.07412" lon="-0.0638">
        <ele>520.21</ele>
        <time>2014-06-26T07:56:10Z</time>
      </trkpt>
      <trkpt lat="43.07419" lon="-0.06379">
        <ele>521.65</ele>
        <time>2014-06-26T07:56:21Z</time>
      </trkpt>
      <trkpt lat="43.07426" lon="-0.06377">
        <ele>522.13</ele>
        <time>2014-06-26T07:56:27Z</time>
      </trkpt>
      <trkpt lat="43.07428" lon="-0.06377">
        <ele>522.13</ele>
        <time>2014-06-26T07:56:30Z</time>
      </trkpt>
      <trkpt lat="43.07438" lon="-0.06378">
        <ele>524.54</ele>
        <time>2014-06-26T07:56:45Z</time>
      </trkpt>
      <trkpt lat="43.07441" lon="-0.06377">
        <ele>525.02</ele>
        <time>2014-06-26T07:56:48Z</time>
      </trkpt>
      <trkpt lat="43.07452" lon="-0.06376">
        <ele>525.98</ele>
        <time>2014-06-26T07:56:57Z</time>
      </trkpt>
      <trkpt lat="43.0746" lon="-0.06376">
        <ele>527.9</ele>
        <time>2014-06-26T07:57:10Z</time>
      </trkpt>
      <trkpt lat="43.0747" lon="-0.06379">
        <ele>530.3</ele>
        <time>2014-06-26T07:57:26Z</time>
      </trkpt>
      <trkpt lat="43.0748" lon="-0.06375">
        <ele>531.75</ele>
        <time>2014-06-26T07:57:38Z</time>
      </trkpt>
      <trkpt lat="43.07492" lon="-0.06373">
        <ele>534.63</ele>
        <time>2014-06-26T07:57:55Z</time>
      </trkpt>
      <trkpt lat="43.07504" lon="-0.06362">
        <ele>536.07</ele>
        <time>2014-06-26T07:58:10Z</time>
      </trkpt>
      <trkpt lat="43.07508" lon="-0.06356">
        <ele>537.51</ele>
        <time>2014-06-26T07:58:18Z</time>
      </trkpt>
      <trkpt lat="43.07518" lon="-0.06341">
        <ele>537.51</ele>
        <time>2014-06-26T07:58:32Z</time>
      </trkpt>
      <trkpt lat="43.07525" lon="-0.06332">
        <ele>537.99</ele>
        <time>2014-06-26T07:58:49Z</time>
      </trkpt>
      <trkpt lat="43.07526" lon="-0.06327">
        <ele>537.99</ele>
        <time>2014-06-26T07:59:00Z</time>
      </trkpt>
      <trkpt lat="43.07531" lon="-0.06316">
        <ele>538.96</ele>
        <time>2014-06-26T07:59:20Z</time>
      </trkpt>
      <trkpt lat="43.07538" lon="-0.06296">
        <ele>539.44</ele>
        <time>2014-06-26T07:59:36Z</time>
      </trkpt>
      <trkpt lat="43.07544" lon="-0.06272">
        <ele>539.92</ele>
        <time>2014-06-26T07:59:53Z</time>
      </trkpt>
      <trkpt lat="43.07553" lon="-0.06253">
        <ele>541.36</ele>
        <time>2014-06-26T08:00:09Z</time>
      </trkpt>
      <trkpt lat="43.0756" lon="-0.06236">
        <ele>543.28</ele>
        <time>2014-06-26T08:00:24Z</time>
      </trkpt>
      <trkpt lat="43.07567" lon="-0.06222">
        <ele>544.24</ele>
        <time>2014-06-26T08:00:39Z</time>
      </trkpt>
      <trkpt lat="43.07571" lon="-0.06208">
        <ele>544.24</ele>
        <time>2014-06-26T08:00:52Z</time>
      </trkpt>
      <trkpt lat="43.07581" lon="-0.06182">
        <ele>545.69</ele>
        <time>2014-06-26T08:01:12Z</time>
      </trkpt>
      <trkpt lat="43.07591" lon="-0.06166">
        <ele>547.13</ele>
        <time>2014-06-26T08:01:26Z</time>
      </trkpt>
      <trkpt lat="43.07591" lon="-0.06161">
        <ele>547.13</ele>
        <time>2014-06-26T08:01:31Z</time>
      </trkpt>
      <trkpt lat="43.07593" lon="-0.06157">
        <ele>547.61</ele>
        <time>2014-06-26T08:01:34Z</time>
      </trkpt>
      <trkpt lat="43.07595" lon="-0.06153">
        <ele>547.61</ele>
        <time>2014-06-26T08:01:37Z</time>
      </trkpt>
      <trkpt lat="43.07604" lon="-0.0614">
        <ele>549.05</ele>
        <time>2014-06-26T08:01:49Z</time>
      </trkpt>
      <trkpt lat="43.07606" lon="-0.06136">
        <ele>550.49</ele>
        <time>2014-06-26T08:01:54Z</time>
      </trkpt>
      <trkpt lat="43.07613" lon="-0.06126">
        <ele>551.45</ele>
        <time>2014-06-26T08:02:08Z</time>
      </trkpt>
      <trkpt lat="43.07617" lon="-0.06114">
        <ele>553.38</ele>
        <time>2014-06-26T08:02:20Z</time>
      </trkpt>
      <trkpt lat="43.07623" lon="-0.06103">
        <ele>554.82</ele>
        <time>2014-06-26T08:02:31Z</time>
      </trkpt>
      <trkpt lat="43.07623" lon="-0.06101">
        <ele>555.3</ele>
        <time>2014-06-26T08:02:33Z</time>
      </trkpt>
      <trkpt lat="43.0763" lon="-0.06096">
        <ele>557.22</ele>
        <time>2014-06-26T08:02:46Z</time>
      </trkpt>
      <trkpt lat="43.0764" lon="-0.06092">
        <ele>559.62</ele>
        <time>2014-06-26T08:02:59Z</time>
      </trkpt>
      <trkpt lat="43.07642" lon="-0.0609">
        <ele>560.59</ele>
        <time>2014-06-26T08:03:04Z</time>
      </trkpt>
      <trkpt lat="43.07648" lon="-0.06087">
        <ele>561.55</ele>
        <time>2014-06-26T08:03:11Z</time>
      </trkpt>
      <trkpt lat="43.07651" lon="-0.06083">
        <ele>562.99</ele>
        <time>2014-06-26T08:03:21Z</time>
      </trkpt>
      <trkpt lat="43.07653" lon="-0.06082">
        <ele>564.43</ele>
        <time>2014-06-26T08:03:30Z</time>
      </trkpt>
      <trkpt lat="43.07665" lon="-0.06079">
        <ele>566.83</ele>
        <time>2014-06-26T08:03:46Z</time>
      </trkpt>
      <trkpt lat="43.0767" lon="-0.06084">
        <ele>569.24</ele>
        <time>2014-06-26T08:03:57Z</time>
      </trkpt>
      <trkpt lat="43.0768" lon="-0.06085">
        <ele>571.16</ele>
        <time>2014-06-26T08:04:10Z</time>
      </trkpt>
      <trkpt lat="43.07685" lon="-0.06087">
        <ele>571.64</ele>
        <time>2014-06-26T08:04:15Z</time>
      </trkpt>
      <trkpt lat="43.07692" lon="-0.06088">
        <ele>575.01</ele>
        <time>2014-06-26T08:04:31Z</time>
      </trkpt>
      <trkpt lat="43.07695" lon="-0.06089">
        <ele>575.49</ele>
        <time>2014-06-26T08:04:34Z</time>
      </trkpt>
      <trkpt lat="43.07702" lon="-0.0609">
        <ele>576.93</ele>
        <time>2014-06-26T08:04:44Z</time>
      </trkpt>
      <trkpt lat="43.07709" lon="-0.06097">
        <ele>578.85</ele>
        <time>2014-06-26T08:04:56Z</time>
      </trkpt>
      <trkpt lat="43.07713" lon="-0.061">
        <ele>578.85</ele>
        <time>2014-06-26T08:05:07Z</time>
      </trkpt>
      <trkpt lat="43.07732" lon="-0.06114">
        <ele>579.33</ele>
        <time>2014-06-26T08:05:27Z</time>
      </trkpt>
      <trkpt lat="43.07743" lon="-0.06123">
        <ele>580.77</ele>
        <time>2014-06-26T08:05:42Z</time>
      </trkpt>
      <trkpt lat="43.07751" lon="-0.06127">
        <ele>582.7</ele>
        <time>2014-06-26T08:05:52Z</time>
      </trkpt>
      <trkpt lat="43.0776" lon="-0.06127">
        <ele>584.14</ele>
        <time>2014-06-26T08:06:03Z</time>
      </trkpt>
      <trkpt lat="43.07765" lon="-0.06127">
        <ele>584.62</ele>
        <time>2014-06-26T08:06:09Z</time>
      </trkpt>
      <trkpt lat="43.07768" lon="-0.06124">
        <ele>585.1</ele>
        <time>2014-06-26T08:06:13Z</time>
      </trkpt>
      <trkpt lat="43.07769" lon="-0.06121">
        <ele>585.58</ele>
        <time>2014-06-26T08:06:16Z</time>
      </trkpt>
      <trkpt lat="43.07777" lon="-0.06118">
        <ele>587.02</ele>
        <time>2014-06-26T08:06:28Z</time>
      </trkpt>
      <trkpt lat="43.07779" lon="-0.06118">
        <ele>587.02</ele>
        <time>2014-06-26T08:06:31Z</time>
      </trkpt>
      <trkpt lat="43.0779" lon="-0.06121">
        <ele>589.43</ele>
        <time>2014-06-26T08:06:45Z</time>
      </trkpt>
      <trkpt lat="43.07791" lon="-0.06121">
        <ele>590.39</ele>
        <time>2014-06-26T08:06:46Z</time>
      </trkpt>
      <trkpt lat="43.078" lon="-0.06118">
        <ele>592.31</ele>
        <time>2014-06-26T08:07:01Z</time>
      </trkpt>
      <trkpt lat="43.07803" lon="-0.06118">
        <ele>592.79</ele>
        <time>2014-06-26T08:07:03Z</time>
      </trkpt>
      <trkpt lat="43.07807" lon="-0.06118">
        <ele>593.27</ele>
        <time>2014-06-26T08:07:07Z</time>
      </trkpt>
      <trkpt lat="43.07812" lon="-0.06125">
        <ele>594.71</ele>
        <time>2014-06-26T08:07:18Z</time>
      </trkpt>
      <trkpt lat="43.07812" lon="-0.06125">
        <ele>594.71</ele>
        <time>2014-06-26T08:07:20Z</time>
      </trkpt>
      <trkpt lat="43.07819" lon="-0.06132">
        <ele>596.64</ele>
        <time>2014-06-26T08:07:30Z</time>
      </trkpt>
      <trkpt lat="43.07825" lon="-0.06133">
        <ele>596.15</ele>
        <time>2014-06-26T08:07:34Z</time>
      </trkpt>
      <trkpt lat="43.07826" lon="-0.06133">
        <ele>596.64</ele>
        <time>2014-06-26T08:07:36Z</time>
      </trkpt>
      <trkpt lat="43.07834" lon="-0.0614">
        <ele>598.08</ele>
        <time>2014-06-26T08:07:48Z</time>
      </trkpt>
      <trkpt lat="43.07841" lon="-0.06144">
        <ele>598.08</ele>
        <time>2014-06-26T08:07:57Z</time>
      </trkpt>
      <trkpt lat="43.07858" lon="-0.06151">
        <ele>599.52</ele>
        <time>2014-06-26T08:08:14Z</time>
      </trkpt>
      <trkpt lat="43.07873" lon="-0.06159">
        <ele>599.52</ele>
        <time>2014-06-26T08:08:29Z</time>
      </trkpt>
      <trkpt lat="43.07874" lon="-0.06161">
        <ele>600</ele>
        <time>2014-06-26T08:08:32Z</time>
      </trkpt>
      <trkpt lat="43.0789" lon="-0.06169">
        <ele>599.52</ele>
        <time>2014-06-26T08:08:47Z</time>
      </trkpt>
      <trkpt lat="43.07906" lon="-0.06177">
        <ele>600.48</ele>
        <time>2014-06-26T08:09:04Z</time>
      </trkpt>
      <trkpt lat="43.07914" lon="-0.06183">
        <ele>601.44</ele>
        <time>2014-06-26T08:09:15Z</time>
      </trkpt>
      <trkpt lat="43.07925" lon="-0.06188">
        <ele>603.36</ele>
        <time>2014-06-26T08:09:29Z</time>
      </trkpt>
      <trkpt lat="43.07928" lon="-0.06191">
        <ele>603.85</ele>
        <time>2014-06-26T08:09:32Z</time>
      </trkpt>
      <trkpt lat="43.07935" lon="-0.06188">
        <ele>604.33</ele>
        <time>2014-06-26T08:09:39Z</time>
      </trkpt>
      <trkpt lat="43.07938" lon="-0.06186">
        <ele>604.81</ele>
        <time>2014-06-26T08:09:43Z</time>
      </trkpt>
      <trkpt lat="43.0794" lon="-0.06186">
        <ele>604.81</ele>
        <time>2014-06-26T08:09:45Z</time>
      </trkpt>
      <trkpt lat="43.07945" lon="-0.06183">
        <ele>605.77</ele>
        <time>2014-06-26T08:09:51Z</time>
      </trkpt>
      <trkpt lat="43.07947" lon="-0.06182">
        <ele>605.77</ele>
        <time>2014-06-26T08:09:53Z</time>
      </trkpt>
      <trkpt lat="43.07959" lon="-0.06181">
        <ele>607.21</ele>
        <time>2014-06-26T08:10:08Z</time>
      </trkpt>
      <trkpt lat="43.07965" lon="-0.06179">
        <ele>608.17</ele>
        <time>2014-06-26T08:10:16Z</time>
      </trkpt>
      <trkpt lat="43.07976" lon="-0.0618">
        <ele>610.09</ele>
        <time>2014-06-26T08:10:30Z</time>
      </trkpt>
      <trkpt lat="43.07984" lon="-0.06177">
        <ele>612.02</ele>
        <time>2014-06-26T08:10:45Z</time>
      </trkpt>
      <trkpt lat="43.07984" lon="-0.06177">
        <ele>612.5</ele>
        <time>2014-06-26T08:10:46Z</time>
      </trkpt>
      <trkpt lat="43.0799" lon="-0.06174">
        <ele>614.42</ele>
        <time>2014-06-26T08:10:55Z</time>
      </trkpt>
      <trkpt lat="43.07997" lon="-0.0617">
        <ele>616.82</ele>
        <time>2014-06-26T08:11:07Z</time>
      </trkpt>
      <trkpt lat="43.08003" lon="-0.06167">
        <ele>618.75</ele>
        <time>2014-06-26T08:11:19Z</time>
      </trkpt>
      <trkpt lat="43.08011" lon="-0.06162">
        <ele>620.67</ele>
        <time>2014-06-26T08:11:32Z</time>
      </trkpt>
      <trkpt lat="43.08013" lon="-0.06158">
        <ele>621.15</ele>
        <time>2014-06-26T08:11:39Z</time>
      </trkpt>
      <trkpt lat="43.08019" lon="-0.06159">
        <ele>622.59</ele>
        <time>2014-06-26T08:11:50Z</time>
      </trkpt>
      <trkpt lat="43.08025" lon="-0.0616">
        <ele>624.03</ele>
        <time>2014-06-26T08:12:01Z</time>
      </trkpt>
      <trkpt lat="43.08031" lon="-0.06162">
        <ele>625.47</ele>
        <time>2014-06-26T08:12:12Z</time>
      </trkpt>
      <trkpt lat="43.08035" lon="-0.06163">
        <ele>626.44</ele>
        <time>2014-06-26T08:12:18Z</time>
      </trkpt>
      <trkpt lat="43.08043" lon="-0.06164">
        <ele>627.88</ele>
        <time>2014-06-26T08:12:33Z</time>
      </trkpt>
      <trkpt lat="43.08049" lon="-0.06167">
        <ele>629.8</ele>
        <time>2014-06-26T08:12:46Z</time>
      </trkpt>
      <trkpt lat="43.08055" lon="-0.06169">
        <ele>632.2</ele>
        <time>2014-06-26T08:12:59Z</time>
      </trkpt>
      <trkpt lat="43.08062" lon="-0.06168">
        <ele>634.13</ele>
        <time>2014-06-26T08:13:11Z</time>
      </trkpt>
      <trkpt lat="43.08067" lon="-0.06168">
        <ele>636.05</ele>
        <time>2014-06-26T08:13:23Z</time>
      </trkpt>
      <trkpt lat="43.08075" lon="-0.06168">
        <ele>637.97</ele>
        <time>2014-06-26T08:13:38Z</time>
      </trkpt>
      <trkpt lat="43.0808" lon="-0.0617">
        <ele>639.89</ele>
        <time>2014-06-26T08:13:49Z</time>
      </trkpt>
      <trkpt lat="43.08083" lon="-0.06171">
        <ele>640.86</ele>
        <time>2014-06-26T08:13:56Z</time>
      </trkpt>
      <trkpt lat="43.0809" lon="-0.06178">
        <ele>642.3</ele>
        <time>2014-06-26T08:14:10Z</time>
      </trkpt>
      <trkpt lat="43.08091" lon="-0.06179">
        <ele>642.3</ele>
        <time>2014-06-26T08:14:11Z</time>
      </trkpt>
      <trkpt lat="43.08097" lon="-0.06182">
        <ele>643.74</ele>
        <time>2014-06-26T08:14:22Z</time>
      </trkpt>
      <trkpt lat="43.08101" lon="-0.06182">
        <ele>645.66</ele>
        <time>2014-06-26T08:14:33Z</time>
      </trkpt>
      <trkpt lat="43.08107" lon="-0.06181">
        <ele>647.59</ele>
        <time>2014-06-26T08:14:46Z</time>
      </trkpt>
      <trkpt lat="43.08111" lon="-0.06182">
        <ele>649.03</ele>
        <time>2014-06-26T08:14:57Z</time>
      </trkpt>
      <trkpt lat="43.08116" lon="-0.06182">
        <ele>650.47</ele>
        <time>2014-06-26T08:15:07Z</time>
      </trkpt>
      <trkpt lat="43.08123" lon="-0.06185">
        <ele>651.43</ele>
        <time>2014-06-26T08:15:21Z</time>
      </trkpt>
      <trkpt lat="43.08128" lon="-0.0619">
        <ele>652.87</ele>
        <time>2014-06-26T08:15:34Z</time>
      </trkpt>
      <trkpt lat="43.08135" lon="-0.06194">
        <ele>654.31</ele>
        <time>2014-06-26T08:15:48Z</time>
      </trkpt>
      <trkpt lat="43.08139" lon="-0.06196">
        <ele>656.24</ele>
        <time>2014-06-26T08:15:58Z</time>
      </trkpt>
      <trkpt lat="43.08143" lon="-0.062">
        <ele>657.68</ele>
        <time>2014-06-26T08:16:10Z</time>
      </trkpt>
      <trkpt lat="43.08146" lon="-0.06201">
        <ele>658.64</ele>
        <time>2014-06-26T08:16:20Z</time>
      </trkpt>
      <trkpt lat="43.08149" lon="-0.06204">
        <ele>660.56</ele>
        <time>2014-06-26T08:16:30Z</time>
      </trkpt>
      <trkpt lat="43.08151" lon="-0.06207">
        <ele>662.01</ele>
        <time>2014-06-26T08:16:41Z</time>
      </trkpt>
      <trkpt lat="43.08155" lon="-0.06211">
        <ele>663.93</ele>
        <time>2014-06-26T08:16:53Z</time>
      </trkpt>
      <trkpt lat="43.08158" lon="-0.06216">
        <ele>665.37</ele>
        <time>2014-06-26T08:17:03Z</time>
      </trkpt>
      <trkpt lat="43.08163" lon="-0.06223">
        <ele>667.29</ele>
        <time>2014-06-26T08:17:17Z</time>
      </trkpt>
      <trkpt lat="43.08169" lon="-0.06226">
        <ele>669.22</ele>
        <time>2014-06-26T08:17:25Z</time>
      </trkpt>
      <trkpt lat="43.0817" lon="-0.06229">
        <ele>669.7</ele>
        <time>2014-06-26T08:17:35Z</time>
      </trkpt>
      <trkpt lat="43.08172" lon="-0.06232">
        <ele>670.66</ele>
        <time>2014-06-26T08:17:40Z</time>
      </trkpt>
      <trkpt lat="43.08176" lon="-0.06237">
        <ele>672.1</ele>
        <time>2014-06-26T08:17:51Z</time>
      </trkpt>
      <trkpt lat="43.0818" lon="-0.06244">
        <ele>673.06</ele>
        <time>2014-06-26T08:18:02Z</time>
      </trkpt>
      <trkpt lat="43.08182" lon="-0.06248">
        <ele>674.98</ele>
        <time>2014-06-26T08:18:14Z</time>
      </trkpt>
      <trkpt lat="43.08186" lon="-0.06251">
        <ele>676.42</ele>
        <time>2014-06-26T08:18:24Z</time>
      </trkpt>
      <trkpt lat="43.08188" lon="-0.06255">
        <ele>677.87</ele>
        <time>2014-06-26T08:18:34Z</time>
      </trkpt>
      <trkpt lat="43.0819" lon="-0.06259">
        <ele>679.79</ele>
        <time>2014-06-26T08:18:44Z</time>
      </trkpt>
      <trkpt lat="43.08193" lon="-0.06266">
        <ele>681.71</ele>
        <time>2014-06-26T08:18:56Z</time>
      </trkpt>
      <trkpt lat="43.08198" lon="-0.06261">
        <ele>683.15</ele>
        <time>2014-06-26T08:19:08Z</time>
      </trkpt>
      <trkpt lat="43.08201" lon="-0.06252">
        <ele>684.6</ele>
        <time>2014-06-26T08:19:21Z</time>
      </trkpt>
      <trkpt lat="43.08204" lon="-0.06244">
        <ele>686.04</ele>
        <time>2014-06-26T08:19:38Z</time>
      </trkpt>
      <trkpt lat="43.08209" lon="-0.06234">
        <ele>687</ele>
        <time>2014-06-26T08:19:51Z</time>
      </trkpt>
      <trkpt lat="43.08216" lon="-0.06224">
        <ele>688.92</ele>
        <time>2014-06-26T08:20:05Z</time>
      </trkpt>
      <trkpt lat="43.08221" lon="-0.0621">
        <ele>690.36</ele>
        <time>2014-06-26T08:20:23Z</time>
      </trkpt>
      <trkpt lat="43.08223" lon="-0.062">
        <ele>691.33</ele>
        <time>2014-06-26T08:20:34Z</time>
      </trkpt>
      <trkpt lat="43.08227" lon="-0.06191">
        <ele>692.77</ele>
        <time>2014-06-26T08:20:47Z</time>
      </trkpt>
      <trkpt lat="43.08232" lon="-0.06181">
        <ele>694.69</ele>
        <time>2014-06-26T08:21:02Z</time>
      </trkpt>
      <trkpt lat="43.08234" lon="-0.06175">
        <ele>696.61</ele>
        <time>2014-06-26T08:21:14Z</time>
      </trkpt>
      <trkpt lat="43.08238" lon="-0.06168">
        <ele>698.53</ele>
        <time>2014-06-26T08:21:26Z</time>
      </trkpt>
      <trkpt lat="43.08239" lon="-0.0616">
        <ele>699.5</ele>
        <time>2014-06-26T08:21:45Z</time>
      </trkpt>
      <trkpt lat="43.08241" lon="-0.06142">
        <ele>700.94</ele>
        <time>2014-06-26T08:22:00Z</time>
      </trkpt>
      <trkpt lat="43.08242" lon="-0.06129">
        <ele>702.38</ele>
        <time>2014-06-26T08:22:13Z</time>
      </trkpt>
      <trkpt lat="43.08241" lon="-0.06118">
        <ele>703.34</ele>
        <time>2014-06-26T08:22:25Z</time>
      </trkpt>
      <trkpt lat="43.0824" lon="-0.06102">
        <ele>704.78</ele>
        <time>2014-06-26T08:22:39Z</time>
      </trkpt>
      <trkpt lat="43.08241" lon="-0.06091">
        <ele>706.71</ele>
        <time>2014-06-26T08:22:54Z</time>
      </trkpt>
      <trkpt lat="43.08241" lon="-0.06086">
        <ele>707.19</ele>
        <time>2014-06-26T08:22:59Z</time>
      </trkpt>
      <trkpt lat="43.08243" lon="-0.06071">
        <ele>709.11</ele>
        <time>2014-06-26T08:23:11Z</time>
      </trkpt>
      <trkpt lat="43.08245" lon="-0.06057">
        <ele>710.07</ele>
        <time>2014-06-26T08:23:24Z</time>
      </trkpt>
      <trkpt lat="43.08246" lon="-0.06045">
        <ele>711.99</ele>
        <time>2014-06-26T08:23:39Z</time>
      </trkpt>
      <trkpt lat="43.08246" lon="-0.06033">
        <ele>712.47</ele>
        <time>2014-06-26T08:23:52Z</time>
      </trkpt>
      <trkpt lat="43.0825" lon="-0.06021">
        <ele>713.44</ele>
        <time>2014-06-26T08:24:03Z</time>
      </trkpt>
      <trkpt lat="43.08255" lon="-0.06018">
        <ele>714.88</ele>
        <time>2014-06-26T08:24:14Z</time>
      </trkpt>
      <trkpt lat="43.0826" lon="-0.06019">
        <ele>715.84</ele>
        <time>2014-06-26T08:24:23Z</time>
      </trkpt>
      <trkpt lat="43.08267" lon="-0.06023">
        <ele>717.28</ele>
        <time>2014-06-26T08:24:34Z</time>
      </trkpt>
      <trkpt lat="43.08272" lon="-0.06024">
        <ele>718.72</ele>
        <time>2014-06-26T08:24:44Z</time>
      </trkpt>
      <trkpt lat="43.08274" lon="-0.06025">
        <ele>720.65</ele>
        <time>2014-06-26T08:24:55Z</time>
      </trkpt>
      <trkpt lat="43.0828" lon="-0.06027">
        <ele>721.13</ele>
        <time>2014-06-26T08:25:07Z</time>
      </trkpt>
      <trkpt lat="43.08287" lon="-0.06029">
        <ele>722.57</ele>
        <time>2014-06-26T08:25:21Z</time>
      </trkpt>
      <trkpt lat="43.08288" lon="-0.06029">
        <ele>723.05</ele>
        <time>2014-06-26T08:25:41Z</time>
      </trkpt>
      <trkpt lat="43.08288" lon="-0.06029">
        <ele>722.09</ele>
        <time>2014-06-26T08:26:02Z</time>
      </trkpt>
      <trkpt lat="43.0829" lon="-0.06033">
        <ele>723.05</ele>
        <time>2014-06-26T08:26:15Z</time>
      </trkpt>
      <trkpt lat="43.08293" lon="-0.06041">
        <ele>723.53</ele>
        <time>2014-06-26T08:26:25Z</time>
      </trkpt>
      <trkpt lat="43.08302" lon="-0.06049">
        <ele>723.05</ele>
        <time>2014-06-26T08:26:37Z</time>
      </trkpt>
      <trkpt lat="43.08303" lon="-0.06049">
        <ele>723.53</ele>
        <time>2014-06-26T08:26:39Z</time>
      </trkpt>
      <trkpt lat="43.08311" lon="-0.0606">
        <ele>722.09</ele>
        <time>2014-06-26T08:26:55Z</time>
      </trkpt>
      <trkpt lat="43.08313" lon="-0.06069">
        <ele>721.13</ele>
        <time>2014-06-26T08:27:07Z</time>
      </trkpt>
      <trkpt lat="43.08314" lon="-0.06075">
        <ele>720.65</ele>
        <time>2014-06-26T08:27:13Z</time>
      </trkpt>
      <trkpt lat="43.08314" lon="-0.06093">
        <ele>720.16</ele>
        <time>2014-06-26T08:27:27Z</time>
      </trkpt>
      <trkpt lat="43.08313" lon="-0.06106">
        <ele>719.2</ele>
        <time>2014-06-26T08:27:39Z</time>
      </trkpt>
      <trkpt lat="43.08314" lon="-0.06117">
        <ele>717.76</ele>
        <time>2014-06-26T08:27:51Z</time>
      </trkpt>
      <trkpt lat="43.08316" lon="-0.06123">
        <ele>716.8</ele>
        <time>2014-06-26T08:27:58Z</time>
      </trkpt>
      <trkpt lat="43.08315" lon="-0.06132">
        <ele>714.4</ele>
        <time>2014-06-26T08:28:10Z</time>
      </trkpt>
      <trkpt lat="43.08315" lon="-0.06143">
        <ele>713.92</ele>
        <time>2014-06-26T08:28:23Z</time>
      </trkpt>
      <trkpt lat="43.08319" lon="-0.06155">
        <ele>712.47</ele>
        <time>2014-06-26T08:28:32Z</time>
      </trkpt>
      <trkpt lat="43.08323" lon="-0.0617">
        <ele>711.99</ele>
        <time>2014-06-26T08:28:47Z</time>
      </trkpt>
      <trkpt lat="43.08324" lon="-0.06172">
        <ele>711.99</ele>
        <time>2014-06-26T08:28:59Z</time>
      </trkpt>
      <trkpt lat="43.08326" lon="-0.0618">
        <ele>711.03</ele>
        <time>2014-06-26T08:29:10Z</time>
      </trkpt>
      <trkpt lat="43.08325" lon="-0.06203">
        <ele>710.07</ele>
        <time>2014-06-26T08:29:28Z</time>
      </trkpt>
      <trkpt lat="43.08319" lon="-0.06214">
        <ele>711.03</ele>
        <time>2014-06-26T08:29:40Z</time>
      </trkpt>
      <trkpt lat="43.08312" lon="-0.06229">
        <ele>709.11</ele>
        <time>2014-06-26T08:29:55Z</time>
      </trkpt>
      <trkpt lat="43.0831" lon="-0.06234">
        <ele>708.63</ele>
        <time>2014-06-26T08:30:00Z</time>
      </trkpt>
      <trkpt lat="43.08308" lon="-0.06237">
        <ele>708.63</ele>
        <time>2014-06-26T08:30:02Z</time>
      </trkpt>
      <trkpt lat="43.08302" lon="-0.06255">
        <ele>711.03</ele>
        <time>2014-06-26T08:30:17Z</time>
      </trkpt>
      <trkpt lat="43.08296" lon="-0.06272">
        <ele>711.51</ele>
        <time>2014-06-26T08:30:35Z</time>
      </trkpt>
      <trkpt lat="43.08306" lon="-0.06276">
        <ele>714.4</ele>
        <time>2014-06-26T08:30:54Z</time>
      </trkpt>
      <trkpt lat="43.08316" lon="-0.06294">
        <ele>717.28</ele>
        <time>2014-06-26T08:31:17Z</time>
      </trkpt>
      <trkpt lat="43.08319" lon="-0.06301">
        <ele>717.76</ele>
        <time>2014-06-26T08:31:28Z</time>
      </trkpt>
      <trkpt lat="43.0832" lon="-0.06304">
        <ele>718.24</ele>
        <time>2014-06-26T08:31:32Z</time>
      </trkpt>
      <trkpt lat="43.08324" lon="-0.06311">
        <ele>719.2</ele>
        <time>2014-06-26T08:31:43Z</time>
      </trkpt>
      <trkpt lat="43.08331" lon="-0.06314">
        <ele>719.68</ele>
        <time>2014-06-26T08:31:51Z</time>
      </trkpt>
      <trkpt lat="43.08337" lon="-0.0632">
        <ele>721.13</ele>
        <time>2014-06-26T08:32:01Z</time>
      </trkpt>
      <trkpt lat="43.08337" lon="-0.06321">
        <ele>722.09</ele>
        <time>2014-06-26T08:32:09Z</time>
      </trkpt>
      <trkpt lat="43.08338" lon="-0.06324">
        <ele>723.53</ele>
        <time>2014-06-26T08:32:21Z</time>
      </trkpt>
      <trkpt lat="43.08338" lon="-0.06325">
        <ele>724.49</ele>
        <time>2014-06-26T08:32:30Z</time>
      </trkpt>
      <trkpt lat="43.08336" lon="-0.06329">
        <ele>725.93</ele>
        <time>2014-06-26T08:32:39Z</time>
      </trkpt>
      <trkpt lat="43.08335" lon="-0.06335">
        <ele>727.37</ele>
        <time>2014-06-26T08:32:50Z</time>
      </trkpt>
      <trkpt lat="43.08331" lon="-0.06345">
        <ele>728.82</ele>
        <time>2014-06-26T08:33:02Z</time>
      </trkpt>
      <trkpt lat="43.0833" lon="-0.06348">
        <ele>729.78</ele>
        <time>2014-06-26T08:33:11Z</time>
      </trkpt>
      <trkpt lat="43.08327" lon="-0.06353">
        <ele>730.74</ele>
        <time>2014-06-26T08:33:20Z</time>
      </trkpt>
      <trkpt lat="43.08326" lon="-0.06361">
        <ele>733.14</ele>
        <time>2014-06-26T08:33:31Z</time>
      </trkpt>
      <trkpt lat="43.08325" lon="-0.0637">
        <ele>734.1</ele>
        <time>2014-06-26T08:33:43Z</time>
      </trkpt>
      <trkpt lat="43.08326" lon="-0.06373">
        <ele>736.03</ele>
        <time>2014-06-26T08:33:55Z</time>
      </trkpt>
      <trkpt lat="43.08327" lon="-0.06373">
        <ele>737.47</ele>
        <time>2014-06-26T08:34:06Z</time>
      </trkpt>
      <trkpt lat="43.08327" lon="-0.06376">
        <ele>738.91</ele>
        <time>2014-06-26T08:34:17Z</time>
      </trkpt>
      <trkpt lat="43.08328" lon="-0.06382">
        <ele>738.91</ele>
        <time>2014-06-26T08:34:26Z</time>
      </trkpt>
      <trkpt lat="43.08332" lon="-0.0639">
        <ele>738.91</ele>
        <time>2014-06-26T08:34:33Z</time>
      </trkpt>
      <trkpt lat="43.0834" lon="-0.06401">
        <ele>739.87</ele>
        <time>2014-06-26T08:34:46Z</time>
      </trkpt>
      <trkpt lat="43.08341" lon="-0.06409">
        <ele>740.35</ele>
        <time>2014-06-26T08:34:56Z</time>
      </trkpt>
      <trkpt lat="43.08348" lon="-0.0642">
        <ele>741.79</ele>
        <time>2014-06-26T08:35:09Z</time>
      </trkpt>
      <trkpt lat="43.08352" lon="-0.06427">
        <ele>743.24</ele>
        <time>2014-06-26T08:35:20Z</time>
      </trkpt>
      <trkpt lat="43.08356" lon="-0.06434">
        <ele>744.68</ele>
        <time>2014-06-26T08:35:32Z</time>
      </trkpt>
      <trkpt lat="43.0836" lon="-0.06441">
        <ele>746.12</ele>
        <time>2014-06-26T08:35:43Z</time>
      </trkpt>
      <trkpt lat="43.08364" lon="-0.06446">
        <ele>747.56</ele>
        <time>2014-06-26T08:35:54Z</time>
      </trkpt>
      <trkpt lat="43.08368" lon="-0.06446">
        <ele>748.52</ele>
        <time>2014-06-26T08:36:05Z</time>
      </trkpt>
      <trkpt lat="43.08369" lon="-0.06447">
        <ele>748.52</ele>
        <time>2014-06-26T08:36:17Z</time>
      </trkpt>
      <trkpt lat="43.08373" lon="-0.06451">
        <ele>748.52</ele>
        <time>2014-06-26T08:36:23Z</time>
      </trkpt>
      <trkpt lat="43.08377" lon="-0.06459">
        <ele>750.45</ele>
        <time>2014-06-26T08:36:34Z</time>
      </trkpt>
      <trkpt lat="43.08379" lon="-0.06466">
        <ele>751.41</ele>
        <time>2014-06-26T08:36:44Z</time>
      </trkpt>
      <trkpt lat="43.08383" lon="-0.06473">
        <ele>752.37</ele>
        <time>2014-06-26T08:36:53Z</time>
      </trkpt>
      <trkpt lat="43.08385" lon="-0.0648">
        <ele>753.81</ele>
        <time>2014-06-26T08:37:03Z</time>
      </trkpt>
      <trkpt lat="43.0839" lon="-0.06485">
        <ele>755.73</ele>
        <time>2014-06-26T08:37:15Z</time>
      </trkpt>
      <trkpt lat="43.08398" lon="-0.06488">
        <ele>756.69</ele>
        <time>2014-06-26T08:37:27Z</time>
      </trkpt>
      <trkpt lat="43.08402" lon="-0.06491">
        <ele>757.18</ele>
        <time>2014-06-26T08:37:39Z</time>
      </trkpt>
      <trkpt lat="43.08404" lon="-0.06492">
        <ele>757.66</ele>
        <time>2014-06-26T08:37:53Z</time>
      </trkpt>
      <trkpt lat="43.0841" lon="-0.06497">
        <ele>758.14</ele>
        <time>2014-06-26T08:38:09Z</time>
      </trkpt>
      <trkpt lat="43.08405" lon="-0.06497">
        <ele>757.66</ele>
        <time>2014-06-26T08:38:24Z</time>
      </trkpt>
      <trkpt lat="43.08401" lon="-0.06509">
        <ele>757.18</ele>
        <time>2014-06-26T08:38:36Z</time>
      </trkpt>
      <trkpt lat="43.08405" lon="-0.06515">
        <ele>757.66</ele>
        <time>2014-06-26T08:38:43Z</time>
      </trkpt>
      <trkpt lat="43.0841" lon="-0.0653">
        <ele>759.1</ele>
        <time>2014-06-26T08:38:57Z</time>
      </trkpt>
      <trkpt lat="43.08414" lon="-0.06538">
        <ele>760.54</ele>
        <time>2014-06-26T08:39:09Z</time>
      </trkpt>
      <trkpt lat="43.08417" lon="-0.06544">
        <ele>762.46</ele>
        <time>2014-06-26T08:39:20Z</time>
      </trkpt>
      <trkpt lat="43.0842" lon="-0.06547">
        <ele>763.42</ele>
        <time>2014-06-26T08:39:28Z</time>
      </trkpt>
      <trkpt lat="43.08423" lon="-0.06552">
        <ele>764.87</ele>
        <time>2014-06-26T08:39:37Z</time>
      </trkpt>
      <trkpt lat="43.08426" lon="-0.06552">
        <ele>766.31</ele>
        <time>2014-06-26T08:39:46Z</time>
      </trkpt>
      <trkpt lat="43.08431" lon="-0.06552">
        <ele>767.75</ele>
        <time>2014-06-26T08:39:58Z</time>
      </trkpt>
      <trkpt lat="43.08432" lon="-0.06554">
        <ele>768.71</ele>
        <time>2014-06-26T08:40:03Z</time>
      </trkpt>
      <trkpt lat="43.08433" lon="-0.06555">
        <ele>770.15</ele>
        <time>2014-06-26T08:40:08Z</time>
      </trkpt>
      <trkpt lat="43.08437" lon="-0.06558">
        <ele>771.11</ele>
        <time>2014-06-26T08:40:18Z</time>
      </trkpt>
      <trkpt lat="43.0844" lon="-0.06564">
        <ele>772.56</ele>
        <time>2014-06-26T08:40:28Z</time>
      </trkpt>
      <trkpt lat="43.08442" lon="-0.06568">
        <ele>773.52</ele>
        <time>2014-06-26T08:40:41Z</time>
      </trkpt>
      <trkpt lat="43.08445" lon="-0.06575">
        <ele>774</ele>
        <time>2014-06-26T08:40:54Z</time>
      </trkpt>
      <trkpt lat="43.08447" lon="-0.06577">
        <ele>774</ele>
        <time>2014-06-26T08:40:56Z</time>
      </trkpt>
      <trkpt lat="43.08451" lon="-0.06587">
        <ele>774.48</ele>
        <time>2014-06-26T08:41:07Z</time>
      </trkpt>
      <trkpt lat="43.08456" lon="-0.06591">
        <ele>774.96</ele>
        <time>2014-06-26T08:41:15Z</time>
      </trkpt>
      <trkpt lat="43.0846" lon="-0.06598">
        <ele>776.88</ele>
        <time>2014-06-26T08:41:26Z</time>
      </trkpt>
      <trkpt lat="43.08467" lon="-0.06604">
        <ele>777.36</ele>
        <time>2014-06-26T08:41:37Z</time>
      </trkpt>
      <trkpt lat="43.08472" lon="-0.06609">
        <ele>779.29</ele>
        <time>2014-06-26T08:41:48Z</time>
      </trkpt>
      <trkpt lat="43.08473" lon="-0.06616">
        <ele>780.25</ele>
        <time>2014-06-26T08:42:00Z</time>
      </trkpt>
      <trkpt lat="43.08475" lon="-0.0662">
        <ele>781.21</ele>
        <time>2014-06-26T08:42:13Z</time>
      </trkpt>
      <trkpt lat="43.08476" lon="-0.06625">
        <ele>781.21</ele>
        <time>2014-06-26T08:42:32Z</time>
      </trkpt>
      <trkpt lat="43.08483" lon="-0.06634">
        <ele>781.21</ele>
        <time>2014-06-26T08:42:44Z</time>
      </trkpt>
      <trkpt lat="43.08483" lon="-0.06638">
        <ele>781.69</ele>
        <time>2014-06-26T08:42:57Z</time>
      </trkpt>
      <trkpt lat="43.08489" lon="-0.06646">
        <ele>781.69</ele>
        <time>2014-06-26T08:43:09Z</time>
      </trkpt>
      <trkpt lat="43.08493" lon="-0.06655">
        <ele>780.73</ele>
        <time>2014-06-26T08:43:21Z</time>
      </trkpt>
      <trkpt lat="43.08493" lon="-0.06657">
        <ele>780.73</ele>
        <time>2014-06-26T08:43:23Z</time>
      </trkpt>
      <trkpt lat="43.08494" lon="-0.06662">
        <ele>779.77</ele>
        <time>2014-06-26T08:43:28Z</time>
      </trkpt>
      <trkpt lat="43.08499" lon="-0.06668">
        <ele>779.77</ele>
        <time>2014-06-26T08:43:40Z</time>
      </trkpt>
      <trkpt lat="43.08502" lon="-0.06679">
        <ele>778.32</ele>
        <time>2014-06-26T08:43:51Z</time>
      </trkpt>
      <trkpt lat="43.08509" lon="-0.06693">
        <ele>776.88</ele>
        <time>2014-06-26T08:44:06Z</time>
      </trkpt>
      <trkpt lat="43.0852" lon="-0.067">
        <ele>775.44</ele>
        <time>2014-06-26T08:44:19Z</time>
      </trkpt>
      <trkpt lat="43.0852" lon="-0.067">
        <ele>775.92</ele>
        <time>2014-06-26T08:44:20Z</time>
      </trkpt>
      <trkpt lat="43.08538" lon="-0.0671">
        <ele>774.96</ele>
        <time>2014-06-26T08:44:35Z</time>
      </trkpt>
      <trkpt lat="43.08539" lon="-0.06711">
        <ele>774.48</ele>
        <time>2014-06-26T08:44:36Z</time>
      </trkpt>
      <trkpt lat="43.0854" lon="-0.06713">
        <ele>774.48</ele>
        <time>2014-06-26T08:44:38Z</time>
      </trkpt>
      <trkpt lat="43.08547" lon="-0.06716">
        <ele>774.96</ele>
        <time>2014-06-26T08:44:45Z</time>
      </trkpt>
      <trkpt lat="43.08549" lon="-0.06719">
        <ele>775.92</ele>
        <time>2014-06-26T08:44:48Z</time>
      </trkpt>
      <trkpt lat="43.08552" lon="-0.06721">
        <ele>775.44</ele>
        <time>2014-06-26T08:44:51Z</time>
      </trkpt>
      <trkpt lat="43.08555" lon="-0.06725">
        <ele>776.4</ele>
        <time>2014-06-26T08:44:58Z</time>
      </trkpt>
      <trkpt lat="43.08557" lon="-0.06738">
        <ele>778.81</ele>
        <time>2014-06-26T08:45:09Z</time>
      </trkpt>
      <trkpt lat="43.08559" lon="-0.06742">
        <ele>779.77</ele>
        <time>2014-06-26T08:45:16Z</time>
      </trkpt>
      <trkpt lat="43.08564" lon="-0.06751">
        <ele>782.17</ele>
        <time>2014-06-26T08:45:26Z</time>
      </trkpt>
      <trkpt lat="43.08571" lon="-0.06758">
        <ele>784.09</ele>
        <time>2014-06-26T08:45:38Z</time>
      </trkpt>
      <trkpt lat="43.08574" lon="-0.06764">
        <ele>784.57</ele>
        <time>2014-06-26T08:45:51Z</time>
      </trkpt>
      <trkpt lat="43.08577" lon="-0.06765">
        <ele>784.57</ele>
        <time>2014-06-26T08:45:53Z</time>
      </trkpt>
      <trkpt lat="43.08578" lon="-0.06776">
        <ele>785.53</ele>
        <time>2014-06-26T08:46:03Z</time>
      </trkpt>
      <trkpt lat="43.08579" lon="-0.06778">
        <ele>785.53</ele>
        <time>2014-06-26T08:46:05Z</time>
      </trkpt>
      <trkpt lat="43.08584" lon="-0.06785">
        <ele>786.02</ele>
        <time>2014-06-26T08:46:13Z</time>
      </trkpt>
      <trkpt lat="43.08592" lon="-0.068">
        <ele>786.98</ele>
        <time>2014-06-26T08:46:28Z</time>
      </trkpt>
      <trkpt lat="43.08593" lon="-0.06802">
        <ele>786.5</ele>
        <time>2014-06-26T08:46:30Z</time>
      </trkpt>
      <trkpt lat="43.08595" lon="-0.06808">
        <ele>788.42</ele>
        <time>2014-06-26T08:46:48Z</time>
      </trkpt>
      <trkpt lat="43.08599" lon="-0.06809">
        <ele>788.9</ele>
        <time>2014-06-26T08:46:58Z</time>
      </trkpt>
      <trkpt lat="43.086" lon="-0.0681">
        <ele>788.9</ele>
        <time>2014-06-26T08:47:09Z</time>
      </trkpt>
      <trkpt lat="43.08601" lon="-0.06806">
        <ele>788.9</ele>
        <time>2014-06-26T08:47:28Z</time>
      </trkpt>
      <trkpt lat="43.08601" lon="-0.06805">
        <ele>787.94</ele>
        <time>2014-06-26T08:47:41Z</time>
      </trkpt>
      <trkpt lat="43.08601" lon="-0.06806">
        <ele>789.38</ele>
        <time>2014-06-26T08:47:55Z</time>
      </trkpt>
      <trkpt lat="43.08598" lon="-0.06805">
        <ele>787.94</ele>
        <time>2014-06-26T08:48:08Z</time>
      </trkpt>
      <trkpt lat="43.08595" lon="-0.06811">
        <ele>787.46</ele>
        <time>2014-06-26T08:48:24Z</time>
      </trkpt>
      <trkpt lat="43.08595" lon="-0.06812">
        <ele>787.46</ele>
        <time>2014-06-26T08:48:37Z</time>
      </trkpt>
      <trkpt lat="43.08597" lon="-0.06811">
        <ele>788.42</ele>
        <time>2014-06-26T08:48:58Z</time>
      </trkpt>
      <trkpt lat="43.08597" lon="-0.06811">
        <ele>787.94</ele>
        <time>2014-06-26T08:49:05Z</time>
      </trkpt>
      <trkpt lat="43.08596" lon="-0.06809">
        <ele>787.94</ele>
        <time>2014-06-26T08:49:16Z</time>
      </trkpt>
      <trkpt lat="43.08593" lon="-0.06807">
        <ele>787.94</ele>
        <time>2014-06-26T08:49:32Z</time>
      </trkpt>
      <trkpt lat="43.08593" lon="-0.06808">
        <ele>786.98</ele>
        <time>2014-06-26T08:49:44Z</time>
      </trkpt>
      <trkpt lat="43.08593" lon="-0.06808">
        <ele>786.98</ele>
        <time>2014-06-26T08:50:10Z</time>
      </trkpt>
      <trkpt lat="43.08593" lon="-0.06808">
        <ele>786.98</ele>
        <time>2014-06-26T08:50:44Z</time>
      </trkpt>
      <trkpt lat="43.08593" lon="-0.06808">
        <ele>786.98</ele>
        <time>2014-06-26T08:51:19Z</time>
      </trkpt>
      <trkpt lat="43.08593" lon="-0.06808">
        <ele>786.5</ele>
        <time>2014-06-26T08:51:55Z</time>
      </trkpt>
      <trkpt lat="43.08593" lon="-0.06808">
        <ele>786.5</ele>
        <time>2014-06-26T08:52:28Z</time>
      </trkpt>
      <trkpt lat="43.08593" lon="-0.06808">
        <ele>787.46</ele>
        <time>2014-06-26T08:53:02Z</time>
      </trkpt>
      <trkpt lat="43.08593" lon="-0.06809">
        <ele>787.94</ele>
        <time>2014-06-26T08:53:22Z</time>
      </trkpt>
      <trkpt lat="43.08594" lon="-0.06808">
        <ele>787.94</ele>
        <time>2014-06-26T08:53:33Z</time>
      </trkpt>
      <trkpt lat="43.086" lon="-0.06815">
        <ele>787.94</ele>
        <time>2014-06-26T08:53:46Z</time>
      </trkpt>
      <trkpt lat="43.08603" lon="-0.06818">
        <ele>787.46</ele>
        <time>2014-06-26T08:53:50Z</time>
      </trkpt>
      <trkpt lat="43.08608" lon="-0.06827">
        <ele>786.02</ele>
        <time>2014-06-26T08:54:02Z</time>
      </trkpt>
      <trkpt lat="43.08614" lon="-0.06837">
        <ele>785.05</ele>
        <time>2014-06-26T08:54:15Z</time>
      </trkpt>
      <trkpt lat="43.08617" lon="-0.06844">
        <ele>784.57</ele>
        <time>2014-06-26T08:54:29Z</time>
      </trkpt>
      <trkpt lat="43.08616" lon="-0.06837">
        <ele>785.53</ele>
        <time>2014-06-26T08:54:53Z</time>
      </trkpt>
      <trkpt lat="43.08615" lon="-0.06836">
        <ele>786.02</ele>
        <time>2014-06-26T08:54:54Z</time>
      </trkpt>
      <trkpt lat="43.08611" lon="-0.06832">
        <ele>785.53</ele>
        <time>2014-06-26T08:54:59Z</time>
      </trkpt>
      <trkpt lat="43.08609" lon="-0.06829">
        <ele>786.5</ele>
        <time>2014-06-26T08:55:02Z</time>
      </trkpt>
      <trkpt lat="43.08605" lon="-0.06819">
        <ele>787.46</ele>
        <time>2014-06-26T08:55:15Z</time>
      </trkpt>
      <trkpt lat="43.08605" lon="-0.06813">
        <ele>787.94</ele>
        <time>2014-06-26T08:55:28Z</time>
      </trkpt>
      <trkpt lat="43.08605" lon="-0.06805">
        <ele>788.42</ele>
        <time>2014-06-26T08:55:40Z</time>
      </trkpt>
      <trkpt lat="43.08602" lon="-0.06801">
        <ele>789.38</ele>
        <time>2014-06-26T08:55:52Z</time>
      </trkpt>
      <trkpt lat="43.08598" lon="-0.06798">
        <ele>788.9</ele>
        <time>2014-06-26T08:56:07Z</time>
      </trkpt>
      <trkpt lat="43.08594" lon="-0.06795">
        <ele>787.46</ele>
        <time>2014-06-26T08:56:13Z</time>
      </trkpt>
      <trkpt lat="43.08583" lon="-0.06785">
        <ele>787.46</ele>
        <time>2014-06-26T08:56:26Z</time>
      </trkpt>
      <trkpt lat="43.08579" lon="-0.06774">
        <ele>786.02</ele>
        <time>2014-06-26T08:56:36Z</time>
      </trkpt>
      <trkpt lat="43.08575" lon="-0.0676">
        <ele>785.05</ele>
        <time>2014-06-26T08:56:47Z</time>
      </trkpt>
      <trkpt lat="43.08572" lon="-0.06758">
        <ele>785.05</ele>
        <time>2014-06-26T08:56:50Z</time>
      </trkpt>
      <trkpt lat="43.08568" lon="-0.06754">
        <ele>785.05</ele>
        <time>2014-06-26T08:57:01Z</time>
      </trkpt>
      <trkpt lat="43.08561" lon="-0.06744">
        <ele>782.17</ele>
        <time>2014-06-26T08:57:13Z</time>
      </trkpt>
      <trkpt lat="43.08558" lon="-0.06735">
        <ele>779.29</ele>
        <time>2014-06-26T08:57:24Z</time>
      </trkpt>
      <trkpt lat="43.08554" lon="-0.06726">
        <ele>777.36</ele>
        <time>2014-06-26T08:57:33Z</time>
      </trkpt>
      <trkpt lat="43.08551" lon="-0.06719">
        <ele>776.88</ele>
        <time>2014-06-26T08:57:38Z</time>
      </trkpt>
      <trkpt lat="43.08547" lon="-0.06718">
        <ele>776.88</ele>
        <time>2014-06-26T08:57:42Z</time>
      </trkpt>
      <trkpt lat="43.08541" lon="-0.06712">
        <ele>775.92</ele>
        <time>2014-06-26T08:57:48Z</time>
      </trkpt>
      <trkpt lat="43.08533" lon="-0.067">
        <ele>775.44</ele>
        <time>2014-06-26T08:57:57Z</time>
      </trkpt>
      <trkpt lat="43.08527" lon="-0.06694">
        <ele>776.4</ele>
        <time>2014-06-26T08:58:05Z</time>
      </trkpt>
      <trkpt lat="43.08523" lon="-0.06687">
        <ele>776.4</ele>
        <time>2014-06-26T08:58:11Z</time>
      </trkpt>
      <trkpt lat="43.08515" lon="-0.06677">
        <ele>775.92</ele>
        <time>2014-06-26T08:58:21Z</time>
      </trkpt>
      <trkpt lat="43.08515" lon="-0.06672">
        <ele>775.44</ele>
        <time>2014-06-26T08:58:25Z</time>
      </trkpt>
      <trkpt lat="43.0851" lon="-0.06653">
        <ele>773.52</ele>
        <time>2014-06-26T08:58:39Z</time>
      </trkpt>
      <trkpt lat="43.08509" lon="-0.06649">
        <ele>773.04</ele>
        <time>2014-06-26T08:58:42Z</time>
      </trkpt>
      <trkpt lat="43.08505" lon="-0.06631">
        <ele>770.63</ele>
        <time>2014-06-26T08:58:57Z</time>
      </trkpt>
      <trkpt lat="43.08506" lon="-0.06622">
        <ele>767.75</ele>
        <time>2014-06-26T08:59:08Z</time>
      </trkpt>
      <trkpt lat="43.08508" lon="-0.06614">
        <ele>765.35</ele>
        <time>2014-06-26T08:59:21Z</time>
      </trkpt>
      <trkpt lat="43.08507" lon="-0.06608">
        <ele>762.94</ele>
        <time>2014-06-26T08:59:33Z</time>
      </trkpt>
      <trkpt lat="43.08504" lon="-0.06599">
        <ele>760.06</ele>
        <time>2014-06-26T08:59:46Z</time>
      </trkpt>
      <trkpt lat="43.08504" lon="-0.06596">
        <ele>759.58</ele>
        <time>2014-06-26T08:59:49Z</time>
      </trkpt>
      <trkpt lat="43.08505" lon="-0.06591">
        <ele>757.18</ele>
        <time>2014-06-26T09:00:00Z</time>
      </trkpt>
      <trkpt lat="43.08503" lon="-0.06586">
        <ele>755.25</ele>
        <time>2014-06-26T09:00:13Z</time>
      </trkpt>
      <trkpt lat="43.08501" lon="-0.06576">
        <ele>752.85</ele>
        <time>2014-06-26T09:00:26Z</time>
      </trkpt>
      <trkpt lat="43.08501" lon="-0.06574">
        <ele>751.89</ele>
        <time>2014-06-26T09:00:38Z</time>
      </trkpt>
      <trkpt lat="43.08501" lon="-0.0657">
        <ele>749.97</ele>
        <time>2014-06-26T09:00:49Z</time>
      </trkpt>
      <trkpt lat="43.08501" lon="-0.0657">
        <ele>748.52</ele>
        <time>2014-06-26T09:01:00Z</time>
      </trkpt>
      <trkpt lat="43.08501" lon="-0.06568">
        <ele>748.04</ele>
        <time>2014-06-26T09:01:10Z</time>
      </trkpt>
      <trkpt lat="43.08501" lon="-0.06561">
        <ele>746.6</ele>
        <time>2014-06-26T09:01:20Z</time>
      </trkpt>
      <trkpt lat="43.08496" lon="-0.06557">
        <ele>744.2</ele>
        <time>2014-06-26T09:01:32Z</time>
      </trkpt>
      <trkpt lat="43.08491" lon="-0.06546">
        <ele>742.28</ele>
        <time>2014-06-26T09:01:43Z</time>
      </trkpt>
      <trkpt lat="43.08485" lon="-0.06535">
        <ele>740.83</ele>
        <time>2014-06-26T09:01:57Z</time>
      </trkpt>
      <trkpt lat="43.08476" lon="-0.06523">
        <ele>739.87</ele>
        <time>2014-06-26T09:02:11Z</time>
      </trkpt>
      <trkpt lat="43.08474" lon="-0.06521">
        <ele>739.87</ele>
        <time>2014-06-26T09:02:12Z</time>
      </trkpt>
      <trkpt lat="43.08472" lon="-0.06519">
        <ele>740.35</ele>
        <time>2014-06-26T09:02:15Z</time>
      </trkpt>
      <trkpt lat="43.08463" lon="-0.06511">
        <ele>740.35</ele>
        <time>2014-06-26T09:02:28Z</time>
      </trkpt>
      <trkpt lat="43.08462" lon="-0.06508">
        <ele>740.35</ele>
        <time>2014-06-26T09:02:30Z</time>
      </trkpt>
      <trkpt lat="43.08453" lon="-0.065">
        <ele>740.83</ele>
        <time>2014-06-26T09:02:42Z</time>
      </trkpt>
      <trkpt lat="43.08451" lon="-0.06491">
        <ele>739.87</ele>
        <time>2014-06-26T09:02:49Z</time>
      </trkpt>
      <trkpt lat="43.0845" lon="-0.06489">
        <ele>740.35</ele>
        <time>2014-06-26T09:02:51Z</time>
      </trkpt>
      <trkpt lat="43.08446" lon="-0.06485">
        <ele>740.35</ele>
        <time>2014-06-26T09:03:03Z</time>
      </trkpt>
      <trkpt lat="43.08444" lon="-0.06482">
        <ele>739.87</ele>
        <time>2014-06-26T09:03:08Z</time>
      </trkpt>
      <trkpt lat="43.08438" lon="-0.06468">
        <ele>737.95</ele>
        <time>2014-06-26T09:03:23Z</time>
      </trkpt>
      <trkpt lat="43.08433" lon="-0.0646">
        <ele>735.55</ele>
        <time>2014-06-26T09:03:37Z</time>
      </trkpt>
      <trkpt lat="43.08421" lon="-0.06447">
        <ele>736.03</ele>
        <time>2014-06-26T09:03:51Z</time>
      </trkpt>
      <trkpt lat="43.0842" lon="-0.06446">
        <ele>736.03</ele>
        <time>2014-06-26T09:03:52Z</time>
      </trkpt>
      <trkpt lat="43.08414" lon="-0.06439">
        <ele>736.03</ele>
        <time>2014-06-26T09:04:02Z</time>
      </trkpt>
      <trkpt lat="43.08402" lon="-0.06431">
        <ele>735.55</ele>
        <time>2014-06-26T09:04:15Z</time>
      </trkpt>
      <trkpt lat="43.08395" lon="-0.06423">
        <ele>735.55</ele>
        <time>2014-06-26T09:04:27Z</time>
      </trkpt>
      <trkpt lat="43.08388" lon="-0.06411">
        <ele>733.62</ele>
        <time>2014-06-26T09:04:41Z</time>
      </trkpt>
      <trkpt lat="43.08378" lon="-0.06402">
        <ele>734.58</ele>
        <time>2014-06-26T09:04:54Z</time>
      </trkpt>
      <trkpt lat="43.08376" lon="-0.06395">
        <ele>733.14</ele>
        <time>2014-06-26T09:05:01Z</time>
      </trkpt>
      <trkpt lat="43.0837" lon="-0.06385">
        <ele>732.66</ele>
        <time>2014-06-26T09:05:10Z</time>
      </trkpt>
      <trkpt lat="43.08364" lon="-0.0637">
        <ele>730.26</ele>
        <time>2014-06-26T09:05:23Z</time>
      </trkpt>
      <trkpt lat="43.08361" lon="-0.0635">
        <ele>727.86</ele>
        <time>2014-06-26T09:05:39Z</time>
      </trkpt>
      <trkpt lat="43.08356" lon="-0.06341">
        <ele>724.49</ele>
        <time>2014-06-26T09:05:50Z</time>
      </trkpt>
      <trkpt lat="43.08348" lon="-0.06326">
        <ele>721.61</ele>
        <time>2014-06-26T09:06:05Z</time>
      </trkpt>
      <trkpt lat="43.08344" lon="-0.06316">
        <ele>720.16</ele>
        <time>2014-06-26T09:06:19Z</time>
      </trkpt>
      <trkpt lat="43.08343" lon="-0.06308">
        <ele>717.28</ele>
        <time>2014-06-26T09:06:31Z</time>
      </trkpt>
      <trkpt lat="43.08344" lon="-0.06306">
        <ele>715.84</ele>
        <time>2014-06-26T09:06:43Z</time>
      </trkpt>
      <trkpt lat="43.08345" lon="-0.0629">
        <ele>713.92</ele>
        <time>2014-06-26T09:06:58Z</time>
      </trkpt>
      <trkpt lat="43.08345" lon="-0.06288">
        <ele>713.44</ele>
        <time>2014-06-26T09:07:00Z</time>
      </trkpt>
      <trkpt lat="43.08342" lon="-0.06274">
        <ele>712.47</ele>
        <time>2014-06-26T09:07:12Z</time>
      </trkpt>
      <trkpt lat="43.0834" lon="-0.06271">
        <ele>712.95</ele>
        <time>2014-06-26T09:07:17Z</time>
      </trkpt>
      <trkpt lat="43.08333" lon="-0.06268">
        <ele>714.4</ele>
        <time>2014-06-26T09:07:26Z</time>
      </trkpt>
      <trkpt lat="43.08331" lon="-0.06258">
        <ele>713.44</ele>
        <time>2014-06-26T09:07:39Z</time>
      </trkpt>
      <trkpt lat="43.08329" lon="-0.06248">
        <ele>711.99</ele>
        <time>2014-06-26T09:07:50Z</time>
      </trkpt>
      <trkpt lat="43.08329" lon="-0.0624">
        <ele>711.99</ele>
        <time>2014-06-26T09:08:01Z</time>
      </trkpt>
      <trkpt lat="43.08329" lon="-0.06238">
        <ele>711.99</ele>
        <time>2014-06-26T09:08:09Z</time>
      </trkpt>
      <trkpt lat="43.08335" lon="-0.06229">
        <ele>711.03</ele>
        <time>2014-06-26T09:08:23Z</time>
      </trkpt>
      <trkpt lat="43.08333" lon="-0.06227">
        <ele>710.55</ele>
        <time>2014-06-26T09:08:28Z</time>
      </trkpt>
      <trkpt lat="43.0833" lon="-0.06225">
        <ele>711.03</ele>
        <time>2014-06-26T09:08:32Z</time>
      </trkpt>
      <trkpt lat="43.08325" lon="-0.06219">
        <ele>710.55</ele>
        <time>2014-06-26T09:08:44Z</time>
      </trkpt>
      <trkpt lat="43.08323" lon="-0.0621">
        <ele>710.55</ele>
        <time>2014-06-26T09:08:53Z</time>
      </trkpt>
      <trkpt lat="43.08322" lon="-0.06195">
        <ele>709.59</ele>
        <time>2014-06-26T09:09:05Z</time>
      </trkpt>
      <trkpt lat="43.08323" lon="-0.06193">
        <ele>708.63</ele>
        <time>2014-06-26T09:09:07Z</time>
      </trkpt>
      <trkpt lat="43.08325" lon="-0.06185">
        <ele>709.59</ele>
        <time>2014-06-26T09:09:12Z</time>
      </trkpt>
      <trkpt lat="43.08332" lon="-0.06171">
        <ele>710.07</ele>
        <time>2014-06-26T09:09:24Z</time>
      </trkpt>
      <trkpt lat="43.08333" lon="-0.06167">
        <ele>710.55</ele>
        <time>2014-06-26T09:09:27Z</time>
      </trkpt>
      <trkpt lat="43.08332" lon="-0.06163">
        <ele>710.55</ele>
        <time>2014-06-26T09:09:31Z</time>
      </trkpt>
      <trkpt lat="43.08327" lon="-0.06156">
        <ele>711.51</ele>
        <time>2014-06-26T09:09:38Z</time>
      </trkpt>
      <trkpt lat="43.08325" lon="-0.06151">
        <ele>711.99</ele>
        <time>2014-06-26T09:09:45Z</time>
      </trkpt>
      <trkpt lat="43.08327" lon="-0.0614">
        <ele>712.47</ele>
        <time>2014-06-26T09:09:53Z</time>
      </trkpt>
      <trkpt lat="43.08326" lon="-0.06138">
        <ele>712.95</ele>
        <time>2014-06-26T09:09:55Z</time>
      </trkpt>
      <trkpt lat="43.08327" lon="-0.06133">
        <ele>713.44</ele>
        <time>2014-06-26T09:10:00Z</time>
      </trkpt>
      <trkpt lat="43.08327" lon="-0.06128">
        <ele>714.4</ele>
        <time>2014-06-26T09:10:04Z</time>
      </trkpt>
      <trkpt lat="43.08324" lon="-0.06119">
        <ele>716.32</ele>
        <time>2014-06-26T09:10:15Z</time>
      </trkpt>
      <trkpt lat="43.08326" lon="-0.06105">
        <ele>717.28</ele>
        <time>2014-06-26T09:10:28Z</time>
      </trkpt>
      <trkpt lat="43.08326" lon="-0.06103">
        <ele>717.76</ele>
        <time>2014-06-26T09:10:31Z</time>
      </trkpt>
      <trkpt lat="43.08326" lon="-0.061">
        <ele>717.76</ele>
        <time>2014-06-26T09:10:37Z</time>
      </trkpt>
      <trkpt lat="43.08326" lon="-0.06085">
        <ele>718.72</ele>
        <time>2014-06-26T09:10:49Z</time>
      </trkpt>
      <trkpt lat="43.08324" lon="-0.0608">
        <ele>718.72</ele>
        <time>2014-06-26T09:10:53Z</time>
      </trkpt>
      <trkpt lat="43.08323" lon="-0.06065">
        <ele>719.68</ele>
        <time>2014-06-26T09:11:07Z</time>
      </trkpt>
      <trkpt lat="43.08321" lon="-0.06056">
        <ele>719.68</ele>
        <time>2014-06-26T09:11:21Z</time>
      </trkpt>
      <trkpt lat="43.08319" lon="-0.06055">
        <ele>719.68</ele>
        <time>2014-06-26T09:11:25Z</time>
      </trkpt>
      <trkpt lat="43.08308" lon="-0.06049">
        <ele>721.13</ele>
        <time>2014-06-26T09:11:38Z</time>
      </trkpt>
      <trkpt lat="43.08306" lon="-0.06048">
        <ele>721.13</ele>
        <time>2014-06-26T09:11:40Z</time>
      </trkpt>
      <trkpt lat="43.08305" lon="-0.06045">
        <ele>720.16</ele>
        <time>2014-06-26T09:11:43Z</time>
      </trkpt>
      <trkpt lat="43.08302" lon="-0.06036">
        <ele>720.16</ele>
        <time>2014-06-26T09:11:55Z</time>
      </trkpt>
      <trkpt lat="43.08296" lon="-0.0603">
        <ele>719.68</ele>
        <time>2014-06-26T09:12:04Z</time>
      </trkpt>
      <trkpt lat="43.08288" lon="-0.06021">
        <ele>718.24</ele>
        <time>2014-06-26T09:12:17Z</time>
      </trkpt>
      <trkpt lat="43.08278" lon="-0.06012">
        <ele>715.36</ele>
        <time>2014-06-26T09:12:32Z</time>
      </trkpt>
      <trkpt lat="43.08268" lon="-0.06009">
        <ele>713.44</ele>
        <time>2014-06-26T09:12:45Z</time>
      </trkpt>
      <trkpt lat="43.08257" lon="-0.06016">
        <ele>711.51</ele>
        <time>2014-06-26T09:13:00Z</time>
      </trkpt>
      <trkpt lat="43.08248" lon="-0.06012">
        <ele>709.59</ele>
        <time>2014-06-26T09:13:15Z</time>
      </trkpt>
      <trkpt lat="43.08248" lon="-0.06011">
        <ele>709.11</ele>
        <time>2014-06-26T09:13:16Z</time>
      </trkpt>
      <trkpt lat="43.08253" lon="-0.05987">
        <ele>709.59</ele>
        <time>2014-06-26T09:13:34Z</time>
      </trkpt>
      <trkpt lat="43.08252" lon="-0.0598">
        <ele>709.11</ele>
        <time>2014-06-26T09:13:39Z</time>
      </trkpt>
      <trkpt lat="43.08253" lon="-0.05978">
        <ele>709.11</ele>
        <time>2014-06-26T09:13:41Z</time>
      </trkpt>
      <trkpt lat="43.08261" lon="-0.05972">
        <ele>705.75</ele>
        <time>2014-06-26T09:13:55Z</time>
      </trkpt>
      <trkpt lat="43.08266" lon="-0.05971">
        <ele>704.3</ele>
        <time>2014-06-26T09:14:01Z</time>
      </trkpt>
      <trkpt lat="43.08268" lon="-0.05969">
        <ele>703.82</ele>
        <time>2014-06-26T09:14:03Z</time>
      </trkpt>
      <trkpt lat="43.08277" lon="-0.05966">
        <ele>702.38</ele>
        <time>2014-06-26T09:14:15Z</time>
      </trkpt>
      <trkpt lat="43.08282" lon="-0.05963">
        <ele>699.5</ele>
        <time>2014-06-26T09:14:23Z</time>
      </trkpt>
      <trkpt lat="43.08292" lon="-0.05959">
        <ele>697.09</ele>
        <time>2014-06-26T09:14:36Z</time>
      </trkpt>
      <trkpt lat="43.08295" lon="-0.05955">
        <ele>696.13</ele>
        <time>2014-06-26T09:14:42Z</time>
      </trkpt>
      <trkpt lat="43.08306" lon="-0.05952">
        <ele>693.25</ele>
        <time>2014-06-26T09:14:56Z</time>
      </trkpt>
      <trkpt lat="43.08307" lon="-0.05952">
        <ele>692.29</ele>
        <time>2014-06-26T09:15:11Z</time>
      </trkpt>
      <trkpt lat="43.08304" lon="-0.05942">
        <ele>690.84</ele>
        <time>2014-06-26T09:15:24Z</time>
      </trkpt>
      <trkpt lat="43.08302" lon="-0.05939">
        <ele>688.92</ele>
        <time>2014-06-26T09:15:33Z</time>
      </trkpt>
      <trkpt lat="43.08297" lon="-0.0593">
        <ele>686.52</ele>
        <time>2014-06-26T09:15:48Z</time>
      </trkpt>
      <trkpt lat="43.08296" lon="-0.05927">
        <ele>685.56</ele>
        <time>2014-06-26T09:16:09Z</time>
      </trkpt>
      <trkpt lat="43.08294" lon="-0.05923">
        <ele>683.63</ele>
        <time>2014-06-26T09:16:21Z</time>
      </trkpt>
      <trkpt lat="43.08292" lon="-0.0592">
        <ele>681.23</ele>
        <time>2014-06-26T09:16:31Z</time>
      </trkpt>
      <trkpt lat="43.08292" lon="-0.05915">
        <ele>679.31</ele>
        <time>2014-06-26T09:16:42Z</time>
      </trkpt>
      <trkpt lat="43.08292" lon="-0.05914">
        <ele>678.83</ele>
        <time>2014-06-26T09:16:44Z</time>
      </trkpt>
      <trkpt lat="43.08291" lon="-0.05911">
        <ele>677.87</ele>
        <time>2014-06-26T09:16:53Z</time>
      </trkpt>
      <trkpt lat="43.08289" lon="-0.05909">
        <ele>677.39</ele>
        <time>2014-06-26T09:16:56Z</time>
      </trkpt>
      <trkpt lat="43.08285" lon="-0.05899">
        <ele>674.5</ele>
        <time>2014-06-26T09:17:09Z</time>
      </trkpt>
      <trkpt lat="43.0828" lon="-0.05894">
        <ele>672.1</ele>
        <time>2014-06-26T09:17:22Z</time>
      </trkpt>
      <trkpt lat="43.08279" lon="-0.05894">
        <ele>671.62</ele>
        <time>2014-06-26T09:17:23Z</time>
      </trkpt>
      <trkpt lat="43.08269" lon="-0.05888">
        <ele>670.18</ele>
        <time>2014-06-26T09:17:35Z</time>
      </trkpt>
      <trkpt lat="43.08261" lon="-0.05879">
        <ele>667.77</ele>
        <time>2014-06-26T09:17:47Z</time>
      </trkpt>
      <trkpt lat="43.08257" lon="-0.05871">
        <ele>664.89</ele>
        <time>2014-06-26T09:17:58Z</time>
      </trkpt>
      <trkpt lat="43.08255" lon="-0.05865">
        <ele>662.01</ele>
        <time>2014-06-26T09:18:10Z</time>
      </trkpt>
      <trkpt lat="43.08255" lon="-0.05855">
        <ele>659.12</ele>
        <time>2014-06-26T09:18:23Z</time>
      </trkpt>
      <trkpt lat="43.08253" lon="-0.05852">
        <ele>657.2</ele>
        <time>2014-06-26T09:18:33Z</time>
      </trkpt>
      <trkpt lat="43.08249" lon="-0.05845">
        <ele>654.31</ele>
        <time>2014-06-26T09:18:47Z</time>
      </trkpt>
      <trkpt lat="43.08247" lon="-0.05842">
        <ele>652.39</ele>
        <time>2014-06-26T09:18:57Z</time>
      </trkpt>
      <trkpt lat="43.08243" lon="-0.05839">
        <ele>650.47</ele>
        <time>2014-06-26T09:19:12Z</time>
      </trkpt>
      <trkpt lat="43.08243" lon="-0.05832">
        <ele>649.03</ele>
        <time>2014-06-26T09:19:26Z</time>
      </trkpt>
      <trkpt lat="43.08243" lon="-0.0583">
        <ele>649.03</ele>
        <time>2014-06-26T09:19:41Z</time>
      </trkpt>
      <trkpt lat="43.08248" lon="-0.05823">
        <ele>647.1</ele>
        <time>2014-06-26T09:19:56Z</time>
      </trkpt>
      <trkpt lat="43.08253" lon="-0.05818">
        <ele>644.7</ele>
        <time>2014-06-26T09:20:08Z</time>
      </trkpt>
      <trkpt lat="43.0826" lon="-0.05816">
        <ele>641.82</ele>
        <time>2014-06-26T09:20:22Z</time>
      </trkpt>
      <trkpt lat="43.08271" lon="-0.05817">
        <ele>639.41</ele>
        <time>2014-06-26T09:20:40Z</time>
      </trkpt>
      <trkpt lat="43.08279" lon="-0.05817">
        <ele>636.53</ele>
        <time>2014-06-26T09:20:53Z</time>
      </trkpt>
      <trkpt lat="43.08292" lon="-0.05818">
        <ele>634.13</ele>
        <time>2014-06-26T09:21:09Z</time>
      </trkpt>
      <trkpt lat="43.083" lon="-0.05818">
        <ele>632.2</ele>
        <time>2014-06-26T09:21:20Z</time>
      </trkpt>
      <trkpt lat="43.08304" lon="-0.05819">
        <ele>631.72</ele>
        <time>2014-06-26T09:21:24Z</time>
      </trkpt>
      <trkpt lat="43.08315" lon="-0.05822">
        <ele>628.84</ele>
        <time>2014-06-26T09:21:39Z</time>
      </trkpt>
      <trkpt lat="43.08325" lon="-0.0583">
        <ele>627.88</ele>
        <time>2014-06-26T09:21:54Z</time>
      </trkpt>
      <trkpt lat="43.08327" lon="-0.05832">
        <ele>627.4</ele>
        <time>2014-06-26T09:22:01Z</time>
      </trkpt>
      <trkpt lat="43.08341" lon="-0.05835">
        <ele>624.99</ele>
        <time>2014-06-26T09:22:17Z</time>
      </trkpt>
      <trkpt lat="43.08351" lon="-0.05836">
        <ele>623.07</ele>
        <time>2014-06-26T09:22:30Z</time>
      </trkpt>
      <trkpt lat="43.08355" lon="-0.05839">
        <ele>622.59</ele>
        <time>2014-06-26T09:22:37Z</time>
      </trkpt>
      <trkpt lat="43.0836" lon="-0.05841">
        <ele>622.11</ele>
        <time>2014-06-26T09:22:43Z</time>
      </trkpt>
      <trkpt lat="43.08372" lon="-0.05846">
        <ele>620.19</ele>
        <time>2014-06-26T09:22:57Z</time>
      </trkpt>
      <trkpt lat="43.08379" lon="-0.05851">
        <ele>621.15</ele>
        <time>2014-06-26T09:23:06Z</time>
      </trkpt>
      <trkpt lat="43.08382" lon="-0.05851">
        <ele>620.67</ele>
        <time>2014-06-26T09:23:08Z</time>
      </trkpt>
      <trkpt lat="43.08383" lon="-0.05851">
        <ele>620.67</ele>
        <time>2014-06-26T09:23:10Z</time>
      </trkpt>
      <trkpt lat="43.08392" lon="-0.05855">
        <ele>619.23</ele>
        <time>2014-06-26T09:23:23Z</time>
      </trkpt>
      <trkpt lat="43.08397" lon="-0.05851">
        <ele>617.3</ele>
        <time>2014-06-26T09:23:34Z</time>
      </trkpt>
      <trkpt lat="43.084" lon="-0.05846">
        <ele>614.9</ele>
        <time>2014-06-26T09:23:46Z</time>
      </trkpt>
      <trkpt lat="43.08404" lon="-0.0584">
        <ele>611.54</ele>
        <time>2014-06-26T09:24:02Z</time>
      </trkpt>
      <trkpt lat="43.08406" lon="-0.05836">
        <ele>609.61</ele>
        <time>2014-06-26T09:24:13Z</time>
      </trkpt>
      <trkpt lat="43.08408" lon="-0.05831">
        <ele>607.21</ele>
        <time>2014-06-26T09:24:23Z</time>
      </trkpt>
      <trkpt lat="43.08412" lon="-0.05829">
        <ele>606.73</ele>
        <time>2014-06-26T09:24:36Z</time>
      </trkpt>
      <trkpt lat="43.08419" lon="-0.05825">
        <ele>604.33</ele>
        <time>2014-06-26T09:24:49Z</time>
      </trkpt>
      <trkpt lat="43.08426" lon="-0.05825">
        <ele>601.44</ele>
        <time>2014-06-26T09:25:03Z</time>
      </trkpt>
      <trkpt lat="43.08432" lon="-0.05828">
        <ele>599.52</ele>
        <time>2014-06-26T09:25:20Z</time>
      </trkpt>
      <trkpt lat="43.08433" lon="-0.05827">
        <ele>598.56</ele>
        <time>2014-06-26T09:25:32Z</time>
      </trkpt>
      <trkpt lat="43.08432" lon="-0.05822">
        <ele>596.64</ele>
        <time>2014-06-26T09:25:43Z</time>
      </trkpt>
      <trkpt lat="43.08434" lon="-0.0582">
        <ele>594.71</ele>
        <time>2014-06-26T09:25:54Z</time>
      </trkpt>
      <trkpt lat="43.08435" lon="-0.0582">
        <ele>594.71</ele>
        <time>2014-06-26T09:25:57Z</time>
      </trkpt>
      <trkpt lat="43.08439" lon="-0.0582">
        <ele>593.75</ele>
        <time>2014-06-26T09:26:08Z</time>
      </trkpt>
      <trkpt lat="43.08443" lon="-0.05817">
        <ele>591.35</ele>
        <time>2014-06-26T09:26:18Z</time>
      </trkpt>
      <trkpt lat="43.08448" lon="-0.05818">
        <ele>589.91</ele>
        <time>2014-06-26T09:26:24Z</time>
      </trkpt>
      <trkpt lat="43.08454" lon="-0.05818">
        <ele>587.02</ele>
        <time>2014-06-26T09:26:37Z</time>
      </trkpt>
      <trkpt lat="43.08456" lon="-0.05816">
        <ele>586.06</ele>
        <time>2014-06-26T09:26:48Z</time>
      </trkpt>
      <trkpt lat="43.08453" lon="-0.05806">
        <ele>584.62</ele>
        <time>2014-06-26T09:27:00Z</time>
      </trkpt>
      <trkpt lat="43.08451" lon="-0.05799">
        <ele>581.73</ele>
        <time>2014-06-26T09:27:12Z</time>
      </trkpt>
      <trkpt lat="43.08453" lon="-0.05793">
        <ele>579.81</ele>
        <time>2014-06-26T09:27:25Z</time>
      </trkpt>
      <trkpt lat="43.08454" lon="-0.05793">
        <ele>578.37</ele>
        <time>2014-06-26T09:27:29Z</time>
      </trkpt>
      <trkpt lat="43.08458" lon="-0.05792">
        <ele>576.93</ele>
        <time>2014-06-26T09:27:44Z</time>
      </trkpt>
      <trkpt lat="43.08458" lon="-0.05792">
        <ele>576.93</ele>
        <time>2014-06-26T09:28:05Z</time>
      </trkpt>
      <trkpt lat="43.08461" lon="-0.05792">
        <ele>576.93</ele>
        <time>2014-06-26T09:28:15Z</time>
      </trkpt>
      <trkpt lat="43.08469" lon="-0.05795">
        <ele>575.01</ele>
        <time>2014-06-26T09:28:30Z</time>
      </trkpt>
      <trkpt lat="43.08477" lon="-0.05787">
        <ele>571.64</ele>
        <time>2014-06-26T09:28:44Z</time>
      </trkpt>
      <trkpt lat="43.08485" lon="-0.0578">
        <ele>568.76</ele>
        <time>2014-06-26T09:28:57Z</time>
      </trkpt>
      <trkpt lat="43.08494" lon="-0.05781">
        <ele>565.39</ele>
        <time>2014-06-26T09:29:12Z</time>
      </trkpt>
      <trkpt lat="43.08501" lon="-0.05769">
        <ele>562.03</ele>
        <time>2014-06-26T09:29:30Z</time>
      </trkpt>
      <trkpt lat="43.08506" lon="-0.05758">
        <ele>559.14</ele>
        <time>2014-06-26T09:29:46Z</time>
      </trkpt>
      <trkpt lat="43.08509" lon="-0.05755">
        <ele>556.74</ele>
        <time>2014-06-26T09:29:56Z</time>
      </trkpt>
      <trkpt lat="43.08509" lon="-0.05754">
        <ele>556.74</ele>
        <time>2014-06-26T09:29:57Z</time>
      </trkpt>
      <trkpt lat="43.08513" lon="-0.05747">
        <ele>554.34</ele>
        <time>2014-06-26T09:30:09Z</time>
      </trkpt>
      <trkpt lat="43.08516" lon="-0.05738">
        <ele>551.45</ele>
        <time>2014-06-26T09:30:23Z</time>
      </trkpt>
      <trkpt lat="43.08519" lon="-0.05738">
        <ele>549.53</ele>
        <time>2014-06-26T09:30:35Z</time>
      </trkpt>
      <trkpt lat="43.0852" lon="-0.05739">
        <ele>548.09</ele>
        <time>2014-06-26T09:30:45Z</time>
      </trkpt>
      <trkpt lat="43.08523" lon="-0.0574">
        <ele>546.65</ele>
        <time>2014-06-26T09:30:56Z</time>
      </trkpt>
      <trkpt lat="43.08527" lon="-0.05736">
        <ele>544.24</ele>
        <time>2014-06-26T09:31:12Z</time>
      </trkpt>
      <trkpt lat="43.08531" lon="-0.05734">
        <ele>543.28</ele>
        <time>2014-06-26T09:31:22Z</time>
      </trkpt>
      <trkpt lat="43.08532" lon="-0.0573">
        <ele>540.88</ele>
        <time>2014-06-26T09:31:36Z</time>
      </trkpt>
      <trkpt lat="43.08532" lon="-0.05723">
        <ele>538.96</ele>
        <time>2014-06-26T09:31:51Z</time>
      </trkpt>
      <trkpt lat="43.08531" lon="-0.05723">
        <ele>537.99</ele>
        <time>2014-06-26T09:32:04Z</time>
      </trkpt>
      <trkpt lat="43.0853" lon="-0.05718">
        <ele>536.07</ele>
        <time>2014-06-26T09:32:17Z</time>
      </trkpt>
      <trkpt lat="43.08533" lon="-0.05714">
        <ele>534.15</ele>
        <time>2014-06-26T09:32:30Z</time>
      </trkpt>
      <trkpt lat="43.08537" lon="-0.05711">
        <ele>532.71</ele>
        <time>2014-06-26T09:32:43Z</time>
      </trkpt>
      <trkpt lat="43.08533" lon="-0.05699">
        <ele>530.3</ele>
        <time>2014-06-26T09:33:01Z</time>
      </trkpt>
      <trkpt lat="43.08531" lon="-0.05698">
        <ele>530.3</ele>
        <time>2014-06-26T09:33:03Z</time>
      </trkpt>
      <trkpt lat="43.08528" lon="-0.05691">
        <ele>528.38</ele>
        <time>2014-06-26T09:33:17Z</time>
      </trkpt>
      <trkpt lat="43.08529" lon="-0.05691">
        <ele>526.94</ele>
        <time>2014-06-26T09:33:27Z</time>
      </trkpt>
      <trkpt lat="43.08532" lon="-0.0569">
        <ele>525.98</ele>
        <time>2014-06-26T09:33:40Z</time>
      </trkpt>
      <trkpt lat="43.08533" lon="-0.05689">
        <ele>524.54</ele>
        <time>2014-06-26T09:33:51Z</time>
      </trkpt>
      <trkpt lat="43.08535" lon="-0.05687">
        <ele>524.06</ele>
        <time>2014-06-26T09:34:07Z</time>
      </trkpt>
      <trkpt lat="43.08531" lon="-0.05683">
        <ele>522.13</ele>
        <time>2014-06-26T09:34:21Z</time>
      </trkpt>
      <trkpt lat="43.0853" lon="-0.05682">
        <ele>521.65</ele>
        <time>2014-06-26T09:34:34Z</time>
      </trkpt>
      <trkpt lat="43.08529" lon="-0.05682">
        <ele>520.21</ele>
        <time>2014-06-26T09:34:46Z</time>
      </trkpt>
      <trkpt lat="43.08529" lon="-0.05682">
        <ele>519.25</ele>
        <time>2014-06-26T09:34:57Z</time>
      </trkpt>
      <trkpt lat="43.0853" lon="-0.05681">
        <ele>518.29</ele>
        <time>2014-06-26T09:35:08Z</time>
      </trkpt>
      <trkpt lat="43.0853" lon="-0.0568">
        <ele>516.85</ele>
        <time>2014-06-26T09:35:21Z</time>
      </trkpt>
      <trkpt lat="43.0853" lon="-0.05678">
        <ele>515.88</ele>
        <time>2014-06-26T09:35:35Z</time>
      </trkpt>
      <trkpt lat="43.08531" lon="-0.05676">
        <ele>514.92</ele>
        <time>2014-06-26T09:35:49Z</time>
      </trkpt>
      <trkpt lat="43.0853" lon="-0.05675">
        <ele>513.48</ele>
        <time>2014-06-26T09:36:02Z</time>
      </trkpt>
      <trkpt lat="43.0853" lon="-0.05676">
        <ele>512.04</ele>
        <time>2014-06-26T09:36:17Z</time>
      </trkpt>
      <trkpt lat="43.08531" lon="-0.05677">
        <ele>510.12</ele>
        <time>2014-06-26T09:36:33Z</time>
      </trkpt>
      <trkpt lat="43.08536" lon="-0.05673">
        <ele>507.71</ele>
        <time>2014-06-26T09:36:47Z</time>
      </trkpt>
      <trkpt lat="43.08538" lon="-0.05669">
        <ele>506.75</ele>
        <time>2014-06-26T09:36:59Z</time>
      </trkpt>
      <trkpt lat="43.08541" lon="-0.05666">
        <ele>504.35</ele>
        <time>2014-06-26T09:37:10Z</time>
      </trkpt>
      <trkpt lat="43.08541" lon="-0.05662">
        <ele>502.43</ele>
        <time>2014-06-26T09:37:23Z</time>
      </trkpt>
      <trkpt lat="43.08541" lon="-0.0566">
        <ele>500.5</ele>
        <time>2014-06-26T09:37:35Z</time>
      </trkpt>
      <trkpt lat="43.0854" lon="-0.05652">
        <ele>497.62</ele>
        <time>2014-06-26T09:37:51Z</time>
      </trkpt>
      <trkpt lat="43.0854" lon="-0.05649">
        <ele>495.7</ele>
        <time>2014-06-26T09:38:04Z</time>
      </trkpt>
      <trkpt lat="43.08538" lon="-0.05644">
        <ele>492.81</ele>
        <time>2014-06-26T09:38:19Z</time>
      </trkpt>
      <trkpt lat="43.08534" lon="-0.05637">
        <ele>489.93</ele>
        <time>2014-06-26T09:38:35Z</time>
      </trkpt>
      <trkpt lat="43.08535" lon="-0.05625">
        <ele>486.56</ele>
        <time>2014-06-26T09:38:51Z</time>
      </trkpt>
      <trkpt lat="43.08534" lon="-0.05618">
        <ele>484.64</ele>
        <time>2014-06-26T09:39:05Z</time>
      </trkpt>
      <trkpt lat="43.08535" lon="-0.05615">
        <ele>481.28</ele>
        <time>2014-06-26T09:39:22Z</time>
      </trkpt>
      <trkpt lat="43.08544" lon="-0.05608">
        <ele>478.39</ele>
        <time>2014-06-26T09:39:39Z</time>
      </trkpt>
      <trkpt lat="43.08547" lon="-0.05603">
        <ele>475.51</ele>
        <time>2014-06-26T09:39:57Z</time>
      </trkpt>
      <trkpt lat="43.08553" lon="-0.05592">
        <ele>474.07</ele>
        <time>2014-06-26T09:40:14Z</time>
      </trkpt>
      <trkpt lat="43.08559" lon="-0.05581">
        <ele>473.59</ele>
        <time>2014-06-26T09:40:28Z</time>
      </trkpt>
      <trkpt lat="43.0855" lon="-0.05566">
        <ele>473.11</ele>
        <time>2014-06-26T09:40:42Z</time>
      </trkpt>
      <trkpt lat="43.08545" lon="-0.05555">
        <ele>472.63</ele>
        <time>2014-06-26T09:40:55Z</time>
      </trkpt>
      <trkpt lat="43.08539" lon="-0.05546">
        <ele>471.66</ele>
        <time>2014-06-26T09:41:13Z</time>
      </trkpt>
      <trkpt lat="43.0853" lon="-0.05525">
        <ele>469.74</ele>
        <time>2014-06-26T09:41:29Z</time>
      </trkpt>
      <trkpt lat="43.08518" lon="-0.05509">
        <ele>468.3</ele>
        <time>2014-06-26T09:41:45Z</time>
      </trkpt>
      <trkpt lat="43.08504" lon="-0.055">
        <ele>465.9</ele>
        <time>2014-06-26T09:42:01Z</time>
      </trkpt>
      <trkpt lat="43.08488" lon="-0.05496">
        <ele>463.01</ele>
        <time>2014-06-26T09:42:20Z</time>
      </trkpt>
      <trkpt lat="43.08478" lon="-0.0549">
        <ele>463.97</ele>
        <time>2014-06-26T09:42:32Z</time>
      </trkpt>
      <trkpt lat="43.08462" lon="-0.05479">
        <ele>463.49</ele>
        <time>2014-06-26T09:42:47Z</time>
      </trkpt>
      <trkpt lat="43.0846" lon="-0.05477">
        <ele>463.01</ele>
        <time>2014-06-26T09:42:49Z</time>
      </trkpt>
      <trkpt lat="43.08451" lon="-0.05461">
        <ele>463.01</ele>
        <time>2014-06-26T09:43:02Z</time>
      </trkpt>
      <trkpt lat="43.08449" lon="-0.05444">
        <ele>460.13</ele>
        <time>2014-06-26T09:43:22Z</time>
      </trkpt>
      <trkpt lat="43.08438" lon="-0.05433">
        <ele>458.21</ele>
        <time>2014-06-26T09:43:38Z</time>
      </trkpt>
      <trkpt lat="43.08436" lon="-0.05429">
        <ele>457.72</ele>
        <time>2014-06-26T09:43:41Z</time>
      </trkpt>
      <trkpt lat="43.08422" lon="-0.05423">
        <ele>454.84</ele>
        <time>2014-06-26T09:43:56Z</time>
      </trkpt>
      <trkpt lat="43.08416" lon="-0.05411">
        <ele>452.92</ele>
        <time>2014-06-26T09:44:12Z</time>
      </trkpt>
      <trkpt lat="43.08411" lon="-0.05399">
        <ele>451</ele>
        <time>2014-06-26T09:44:25Z</time>
      </trkpt>
      <trkpt lat="43.08403" lon="-0.05382">
        <ele>449.07</ele>
        <time>2014-06-26T09:44:42Z</time>
      </trkpt>
      <trkpt lat="43.08401" lon="-0.0538">
        <ele>446.67</ele>
        <time>2014-06-26T09:44:54Z</time>
      </trkpt>
      <trkpt lat="43.08401" lon="-0.0538">
        <ele>444.75</ele>
        <time>2014-06-26T09:45:11Z</time>
      </trkpt>
      <trkpt lat="43.08403" lon="-0.05374">
        <ele>441.86</ele>
        <time>2014-06-26T09:45:25Z</time>
      </trkpt>
      <trkpt lat="43.08406" lon="-0.05367">
        <ele>441.38</ele>
        <time>2014-06-26T09:45:31Z</time>
      </trkpt>
      <trkpt lat="43.0841" lon="-0.05354">
        <ele>440.9</ele>
        <time>2014-06-26T09:45:44Z</time>
      </trkpt>
      <trkpt lat="43.08408" lon="-0.05338">
        <ele>440.42</ele>
        <time>2014-06-26T09:45:56Z</time>
      </trkpt>
      <trkpt lat="43.08397" lon="-0.05313">
        <ele>439.46</ele>
        <time>2014-06-26T09:46:07Z</time>
      </trkpt>
      <trkpt lat="43.08385" lon="-0.05305">
        <ele>438.5</ele>
        <time>2014-06-26T09:46:21Z</time>
      </trkpt>
      <trkpt lat="43.08374" lon="-0.05294">
        <ele>437.54</ele>
        <time>2014-06-26T09:46:33Z</time>
      </trkpt>
      <trkpt lat="43.0837" lon="-0.05294">
        <ele>438.02</ele>
        <time>2014-06-26T09:46:36Z</time>
      </trkpt>
      <trkpt lat="43.08368" lon="-0.05295">
        <ele>438.02</ele>
        <time>2014-06-26T09:46:38Z</time>
      </trkpt>
      <trkpt lat="43.08366" lon="-0.05298">
        <ele>438.5</ele>
        <time>2014-06-26T09:46:42Z</time>
      </trkpt>
      <trkpt lat="43.08356" lon="-0.05295">
        <ele>437.54</ele>
        <time>2014-06-26T09:46:55Z</time>
      </trkpt>
      <trkpt lat="43.08344" lon="-0.05293">
        <ele>435.13</ele>
        <time>2014-06-26T09:47:11Z</time>
      </trkpt>
      <trkpt lat="43.08336" lon="-0.05298">
        <ele>433.69</ele>
        <time>2014-06-26T09:47:26Z</time>
      </trkpt>
      <trkpt lat="43.08324" lon="-0.05311">
        <ele>432.73</ele>
        <time>2014-06-26T09:47:40Z</time>
      </trkpt>
      <trkpt lat="43.08318" lon="-0.05312">
        <ele>431.77</ele>
        <time>2014-06-26T09:47:49Z</time>
      </trkpt>
      <trkpt lat="43.08313" lon="-0.05315">
        <ele>431.29</ele>
        <time>2014-06-26T09:47:55Z</time>
      </trkpt>
      <trkpt lat="43.08303" lon="-0.05322">
        <ele>431.29</ele>
        <time>2014-06-26T09:48:08Z</time>
      </trkpt>
      <trkpt lat="43.08295" lon="-0.0532">
        <ele>429.85</ele>
        <time>2014-06-26T09:48:22Z</time>
      </trkpt>
      <trkpt lat="43.08284" lon="-0.05325">
        <ele>428.4</ele>
        <time>2014-06-26T09:48:36Z</time>
      </trkpt>
      <trkpt lat="43.08283" lon="-0.05325">
        <ele>427.44</ele>
        <time>2014-06-26T09:48:39Z</time>
      </trkpt>
      <trkpt lat="43.08261" lon="-0.05334">
        <ele>426</ele>
        <time>2014-06-26T09:48:53Z</time>
      </trkpt>
      <trkpt lat="43.08247" lon="-0.05331">
        <ele>424.56</ele>
        <time>2014-06-26T09:49:07Z</time>
      </trkpt>
      <trkpt lat="43.08239" lon="-0.0533">
        <ele>423.6</ele>
        <time>2014-06-26T09:49:21Z</time>
      </trkpt>
      <trkpt lat="43.08238" lon="-0.05331">
        <ele>423.6</ele>
        <time>2014-06-26T09:49:24Z</time>
      </trkpt>
      <trkpt lat="43.08225" lon="-0.05329">
        <ele>423.6</ele>
        <time>2014-06-26T09:49:37Z</time>
      </trkpt>
      <trkpt lat="43.08221" lon="-0.05328">
        <ele>423.12</ele>
        <time>2014-06-26T09:49:41Z</time>
      </trkpt>
      <trkpt lat="43.08207" lon="-0.05331">
        <ele>422.16</ele>
        <time>2014-06-26T09:49:55Z</time>
      </trkpt>
      <trkpt lat="43.08194" lon="-0.05329">
        <ele>422.16</ele>
        <time>2014-06-26T09:50:10Z</time>
      </trkpt>
      <trkpt lat="43.08191" lon="-0.05329">
        <ele>422.64</ele>
        <time>2014-06-26T09:50:14Z</time>
      </trkpt>
      <trkpt lat="43.08175" lon="-0.05323">
        <ele>422.64</ele>
        <time>2014-06-26T09:50:28Z</time>
      </trkpt>
      <trkpt lat="43.08166" lon="-0.05313">
        <ele>424.08</ele>
        <time>2014-06-26T09:50:44Z</time>
      </trkpt>
      <trkpt lat="43.08157" lon="-0.05308">
        <ele>424.08</ele>
        <time>2014-06-26T09:51:00Z</time>
      </trkpt>
      <trkpt lat="43.08157" lon="-0.05308">
        <ele>425.04</ele>
        <time>2014-06-26T09:51:02Z</time>
      </trkpt>
      <trkpt lat="43.08146" lon="-0.05321">
        <ele>426.96</ele>
        <time>2014-06-26T09:51:15Z</time>
      </trkpt>
      <trkpt lat="43.08144" lon="-0.05323">
        <ele>427.44</ele>
        <time>2014-06-26T09:51:19Z</time>
      </trkpt>
      <trkpt lat="43.08142" lon="-0.05325">
        <ele>427.92</ele>
        <time>2014-06-26T09:51:21Z</time>
      </trkpt>
      <trkpt lat="43.08132" lon="-0.05331">
        <ele>427.44</ele>
        <time>2014-06-26T09:51:32Z</time>
      </trkpt>
      <trkpt lat="43.08131" lon="-0.05333">
        <ele>427.92</ele>
        <time>2014-06-26T09:51:34Z</time>
      </trkpt>
      <trkpt lat="43.08126" lon="-0.05339">
        <ele>428.4</ele>
        <time>2014-06-26T09:51:45Z</time>
      </trkpt>
      <trkpt lat="43.08123" lon="-0.05345">
        <ele>430.33</ele>
        <time>2014-06-26T09:51:59Z</time>
      </trkpt>
      <trkpt lat="43.08114" lon="-0.05354">
        <ele>431.77</ele>
        <time>2014-06-26T09:52:11Z</time>
      </trkpt>
      <trkpt lat="43.08107" lon="-0.0536">
        <ele>433.21</ele>
        <time>2014-06-26T09:52:24Z</time>
      </trkpt>
      <trkpt lat="43.081" lon="-0.05365">
        <ele>434.65</ele>
        <time>2014-06-26T09:52:35Z</time>
      </trkpt>
      <trkpt lat="43.08088" lon="-0.05368">
        <ele>435.61</ele>
        <time>2014-06-26T09:52:47Z</time>
      </trkpt>
      <trkpt lat="43.08076" lon="-0.05363">
        <ele>437.54</ele>
        <time>2014-06-26T09:53:03Z</time>
      </trkpt>
      <trkpt lat="43.08066" lon="-0.05356">
        <ele>438.98</ele>
        <time>2014-06-26T09:53:18Z</time>
      </trkpt>
      <trkpt lat="43.0806" lon="-0.05359">
        <ele>440.42</ele>
        <time>2014-06-26T09:53:30Z</time>
      </trkpt>
      <trkpt lat="43.08054" lon="-0.05363">
        <ele>440.9</ele>
        <time>2014-06-26T09:53:36Z</time>
      </trkpt>
      <trkpt lat="43.08043" lon="-0.05366">
        <ele>441.38</ele>
        <time>2014-06-26T09:53:44Z</time>
      </trkpt>
      <trkpt lat="43.08041" lon="-0.05367">
        <ele>441.38</ele>
        <time>2014-06-26T09:53:46Z</time>
      </trkpt>
      <trkpt lat="43.08028" lon="-0.05365">
        <ele>441.38</ele>
        <time>2014-06-26T09:53:58Z</time>
      </trkpt>
      <trkpt lat="43.08018" lon="-0.05361">
        <ele>440.9</ele>
        <time>2014-06-26T09:54:07Z</time>
      </trkpt>
      <trkpt lat="43.08011" lon="-0.05356">
        <ele>440.9</ele>
        <time>2014-06-26T09:54:18Z</time>
      </trkpt>
      <trkpt lat="43.08007" lon="-0.05352">
        <ele>440.42</ele>
        <time>2014-06-26T09:54:26Z</time>
      </trkpt>
      <trkpt lat="43.08005" lon="-0.05349">
        <ele>440.42</ele>
        <time>2014-06-26T09:54:29Z</time>
      </trkpt>
      <trkpt lat="43.07991" lon="-0.05344">
        <ele>438.98</ele>
        <time>2014-06-26T09:54:43Z</time>
      </trkpt>
      <trkpt lat="43.0799" lon="-0.05344">
        <ele>438.5</ele>
        <time>2014-06-26T09:54:44Z</time>
      </trkpt>
      <trkpt lat="43.07975" lon="-0.0535">
        <ele>438.5</ele>
        <time>2014-06-26T09:54:58Z</time>
      </trkpt>
      <trkpt lat="43.07967" lon="-0.05361">
        <ele>439.94</ele>
        <time>2014-06-26T09:55:09Z</time>
      </trkpt>
      <trkpt lat="43.07957" lon="-0.05366">
        <ele>439.94</ele>
        <time>2014-06-26T09:55:21Z</time>
      </trkpt>
      <trkpt lat="43.07948" lon="-0.05374">
        <ele>439.46</ele>
        <time>2014-06-26T09:55:33Z</time>
      </trkpt>
      <trkpt lat="43.07938" lon="-0.05389">
        <ele>438.98</ele>
        <time>2014-06-26T09:55:46Z</time>
      </trkpt>
      <trkpt lat="43.07923" lon="-0.05404">
        <ele>438.5</ele>
        <time>2014-06-26T09:55:59Z</time>
      </trkpt>
      <trkpt lat="43.0792" lon="-0.05404">
        <ele>438.5</ele>
        <time>2014-06-26T09:56:01Z</time>
      </trkpt>
      <trkpt lat="43.07914" lon="-0.05408">
        <ele>438.02</ele>
        <time>2014-06-26T09:56:06Z</time>
      </trkpt>
      <trkpt lat="43.07901" lon="-0.05415">
        <ele>438.98</ele>
        <time>2014-06-26T09:56:20Z</time>
      </trkpt>
      <trkpt lat="43.07898" lon="-0.05416">
        <ele>438.98</ele>
        <time>2014-06-26T09:56:22Z</time>
      </trkpt>
      <trkpt lat="43.07883" lon="-0.05413">
        <ele>438.98</ele>
        <time>2014-06-26T09:56:37Z</time>
      </trkpt>
      <trkpt lat="43.07866" lon="-0.05408">
        <ele>436.58</ele>
        <time>2014-06-26T09:56:55Z</time>
      </trkpt>
      <trkpt lat="43.07852" lon="-0.05415">
        <ele>437.06</ele>
        <time>2014-06-26T09:57:08Z</time>
      </trkpt>
      <trkpt lat="43.07843" lon="-0.05421">
        <ele>438.02</ele>
        <time>2014-06-26T09:57:19Z</time>
      </trkpt>
      <trkpt lat="43.07833" lon="-0.0543">
        <ele>439.94</ele>
        <time>2014-06-26T09:57:31Z</time>
      </trkpt>
      <trkpt lat="43.07828" lon="-0.05437">
        <ele>440.9</ele>
        <time>2014-06-26T09:57:37Z</time>
      </trkpt>
      <trkpt lat="43.0782" lon="-0.05445">
        <ele>441.38</ele>
        <time>2014-06-26T09:57:49Z</time>
      </trkpt>
      <trkpt lat="43.07812" lon="-0.05452">
        <ele>439.94</ele>
        <time>2014-06-26T09:58:01Z</time>
      </trkpt>
      <trkpt lat="43.07798" lon="-0.05464">
        <ele>438.98</ele>
        <time>2014-06-26T09:58:13Z</time>
      </trkpt>
      <trkpt lat="43.07786" lon="-0.05477">
        <ele>439.46</ele>
        <time>2014-06-26T09:58:27Z</time>
      </trkpt>
      <trkpt lat="43.07779" lon="-0.05484">
        <ele>439.94</ele>
        <time>2014-06-26T09:58:39Z</time>
      </trkpt>
      <trkpt lat="43.07773" lon="-0.05492">
        <ele>440.42</ele>
        <time>2014-06-26T09:58:49Z</time>
      </trkpt>
      <trkpt lat="43.07759" lon="-0.05505">
        <ele>440.42</ele>
        <time>2014-06-26T09:59:05Z</time>
      </trkpt>
      <trkpt lat="43.0775" lon="-0.05514">
        <ele>440.42</ele>
        <time>2014-06-26T09:59:16Z</time>
      </trkpt>
      <trkpt lat="43.07744" lon="-0.05518">
        <ele>440.42</ele>
        <time>2014-06-26T09:59:23Z</time>
      </trkpt>
      <trkpt lat="43.07739" lon="-0.0553">
        <ele>441.38</ele>
        <time>2014-06-26T09:59:35Z</time>
      </trkpt>
      <trkpt lat="43.07739" lon="-0.05532">
        <ele>442.34</ele>
        <time>2014-06-26T09:59:38Z</time>
      </trkpt>
      <trkpt lat="43.07739" lon="-0.05535">
        <ele>442.34</ele>
        <time>2014-06-26T09:59:53Z</time>
      </trkpt>
      <trkpt lat="43.07728" lon="-0.05556">
        <ele>443.31</ele>
        <time>2014-06-26T10:00:12Z</time>
      </trkpt>
      <trkpt lat="43.07721" lon="-0.05571">
        <ele>444.27</ele>
        <time>2014-06-26T10:00:27Z</time>
      </trkpt>
      <trkpt lat="43.07718" lon="-0.05576">
        <ele>444.27</ele>
        <time>2014-06-26T10:00:31Z</time>
      </trkpt>
      <trkpt lat="43.07707" lon="-0.05596">
        <ele>445.23</ele>
        <time>2014-06-26T10:00:45Z</time>
      </trkpt>
      <trkpt lat="43.07702" lon="-0.05612">
        <ele>447.15</ele>
        <time>2014-06-26T10:00:57Z</time>
      </trkpt>
      <trkpt lat="43.07697" lon="-0.05625">
        <ele>448.11</ele>
        <time>2014-06-26T10:01:09Z</time>
      </trkpt>
      <trkpt lat="43.07688" lon="-0.05643">
        <ele>450.03</ele>
        <time>2014-06-26T10:01:24Z</time>
      </trkpt>
      <trkpt lat="43.07684" lon="-0.05649">
        <ele>450.03</ele>
        <time>2014-06-26T10:01:30Z</time>
      </trkpt>
      <trkpt lat="43.07678" lon="-0.05663">
        <ele>450.52</ele>
        <time>2014-06-26T10:01:42Z</time>
      </trkpt>
      <trkpt lat="43.07675" lon="-0.05667">
        <ele>451</ele>
        <time>2014-06-26T10:01:46Z</time>
      </trkpt>
      <trkpt lat="43.07674" lon="-0.05673">
        <ele>451</ele>
        <time>2014-06-26T10:01:51Z</time>
      </trkpt>
      <trkpt lat="43.07673" lon="-0.05676">
        <ele>450.52</ele>
        <time>2014-06-26T10:01:53Z</time>
      </trkpt>
      <trkpt lat="43.07666" lon="-0.05692">
        <ele>450.52</ele>
        <time>2014-06-26T10:02:07Z</time>
      </trkpt>
      <trkpt lat="43.07654" lon="-0.05708">
        <ele>449.07</ele>
        <time>2014-06-26T10:02:20Z</time>
      </trkpt>
      <trkpt lat="43.07649" lon="-0.05713">
        <ele>449.55</ele>
        <time>2014-06-26T10:02:24Z</time>
      </trkpt>
      <trkpt lat="43.07644" lon="-0.05723">
        <ele>449.07</ele>
        <time>2014-06-26T10:02:32Z</time>
      </trkpt>
      <trkpt lat="43.0763" lon="-0.05735">
        <ele>448.59</ele>
        <time>2014-06-26T10:02:46Z</time>
      </trkpt>
      <trkpt lat="43.07628" lon="-0.05738">
        <ele>448.59</ele>
        <time>2014-06-26T10:02:49Z</time>
      </trkpt>
      <trkpt lat="43.07611" lon="-0.05752">
        <ele>448.59</ele>
        <time>2014-06-26T10:03:05Z</time>
      </trkpt>
      <trkpt lat="43.07609" lon="-0.05753">
        <ele>448.59</ele>
        <time>2014-06-26T10:03:08Z</time>
      </trkpt>
      <trkpt lat="43.07605" lon="-0.05757">
        <ele>449.07</ele>
        <time>2014-06-26T10:03:13Z</time>
      </trkpt>
      <trkpt lat="43.076" lon="-0.05759">
        <ele>448.59</ele>
        <time>2014-06-26T10:03:18Z</time>
      </trkpt>
      <trkpt lat="43.07597" lon="-0.05762">
        <ele>449.55</ele>
        <time>2014-06-26T10:03:23Z</time>
      </trkpt>
      <trkpt lat="43.07579" lon="-0.05776">
        <ele>449.55</ele>
        <time>2014-06-26T10:03:40Z</time>
      </trkpt>
      <trkpt lat="43.07565" lon="-0.05782">
        <ele>450.03</ele>
        <time>2014-06-26T10:03:55Z</time>
      </trkpt>
      <trkpt lat="43.07552" lon="-0.05785">
        <ele>451.48</ele>
        <time>2014-06-26T10:04:07Z</time>
      </trkpt>
      <trkpt lat="43.07539" lon="-0.05787">
        <ele>452.92</ele>
        <time>2014-06-26T10:04:20Z</time>
      </trkpt>
      <trkpt lat="43.07538" lon="-0.05789">
        <ele>452.92</ele>
        <time>2014-06-26T10:04:23Z</time>
      </trkpt>
      <trkpt lat="43.07541" lon="-0.05797">
        <ele>452.92</ele>
        <time>2014-06-26T10:04:30Z</time>
      </trkpt>
      <trkpt lat="43.07544" lon="-0.05807">
        <ele>455.8</ele>
        <time>2014-06-26T10:04:41Z</time>
      </trkpt>
      <trkpt lat="43.07542" lon="-0.05812">
        <ele>457.24</ele>
        <time>2014-06-26T10:04:52Z</time>
      </trkpt>
      <trkpt lat="43.07542" lon="-0.05814">
        <ele>457.24</ele>
        <time>2014-06-26T10:05:00Z</time>
      </trkpt>
      <trkpt lat="43.07539" lon="-0.05817">
        <ele>457.72</ele>
        <time>2014-06-26T10:05:05Z</time>
      </trkpt>
      <trkpt lat="43.07532" lon="-0.05831">
        <ele>460.13</ele>
        <time>2014-06-26T10:05:21Z</time>
      </trkpt>
      <trkpt lat="43.07527" lon="-0.05847">
        <ele>462.05</ele>
        <time>2014-06-26T10:05:37Z</time>
      </trkpt>
      <trkpt lat="43.07527" lon="-0.05854">
        <ele>463.01</ele>
        <time>2014-06-26T10:05:42Z</time>
      </trkpt>
      <trkpt lat="43.07524" lon="-0.05861">
        <ele>463.49</ele>
        <time>2014-06-26T10:05:50Z</time>
      </trkpt>
      <trkpt lat="43.07522" lon="-0.05864">
        <ele>463.97</ele>
        <time>2014-06-26T10:05:54Z</time>
      </trkpt>
      <trkpt lat="43.0751" lon="-0.05873">
        <ele>464.93</ele>
        <time>2014-06-26T10:06:09Z</time>
      </trkpt>
      <trkpt lat="43.07502" lon="-0.05878">
        <ele>465.9</ele>
        <time>2014-06-26T10:06:24Z</time>
      </trkpt>
      <trkpt lat="43.0749" lon="-0.05887">
        <ele>467.34</ele>
        <time>2014-06-26T10:06:42Z</time>
      </trkpt>
      <trkpt lat="43.07485" lon="-0.05891">
        <ele>467.82</ele>
        <time>2014-06-26T10:06:46Z</time>
      </trkpt>
      <trkpt lat="43.07472" lon="-0.05902">
        <ele>469.74</ele>
        <time>2014-06-26T10:07:00Z</time>
      </trkpt>
      <trkpt lat="43.0747" lon="-0.05904">
        <ele>470.22</ele>
        <time>2014-06-26T10:07:02Z</time>
      </trkpt>
      <trkpt lat="43.07468" lon="-0.05906">
        <ele>470.22</ele>
        <time>2014-06-26T10:07:05Z</time>
      </trkpt>
      <trkpt lat="43.07466" lon="-0.05908">
        <ele>470.7</ele>
        <time>2014-06-26T10:07:07Z</time>
      </trkpt>
      <trkpt lat="43.07463" lon="-0.0591">
        <ele>471.18</ele>
        <time>2014-06-26T10:07:10Z</time>
      </trkpt>
      <trkpt lat="43.07455" lon="-0.05917">
        <ele>471.66</ele>
        <time>2014-06-26T10:07:22Z</time>
      </trkpt>
      <trkpt lat="43.07449" lon="-0.05919">
        <ele>472.14</ele>
        <time>2014-06-26T10:07:29Z</time>
      </trkpt>
      <trkpt lat="43.07447" lon="-0.0592">
        <ele>472.14</ele>
        <time>2014-06-26T10:07:32Z</time>
      </trkpt>
      <trkpt lat="43.07434" lon="-0.05928">
        <ele>473.11</ele>
        <time>2014-06-26T10:07:46Z</time>
      </trkpt>
      <trkpt lat="43.07427" lon="-0.05933">
        <ele>473.59</ele>
        <time>2014-06-26T10:07:55Z</time>
      </trkpt>
      <trkpt lat="43.07419" lon="-0.05941">
        <ele>475.03</ele>
        <time>2014-06-26T10:08:05Z</time>
      </trkpt>
      <trkpt lat="43.07414" lon="-0.05948">
        <ele>476.95</ele>
        <time>2014-06-26T10:08:17Z</time>
      </trkpt>
      <trkpt lat="43.07409" lon="-0.05958">
        <ele>477.91</ele>
        <time>2014-06-26T10:08:30Z</time>
      </trkpt>
      <trkpt lat="43.07401" lon="-0.05969">
        <ele>480.32</ele>
        <time>2014-06-26T10:08:44Z</time>
      </trkpt>
      <trkpt lat="43.07395" lon="-0.05974">
        <ele>480.8</ele>
        <time>2014-06-26T10:08:52Z</time>
      </trkpt>
      <trkpt lat="43.0739" lon="-0.05979">
        <ele>479.84</ele>
        <time>2014-06-26T10:08:58Z</time>
      </trkpt>
      <trkpt lat="43.07381" lon="-0.05996">
        <ele>478.87</ele>
        <time>2014-06-26T10:09:14Z</time>
      </trkpt>
      <trkpt lat="43.07373" lon="-0.06014">
        <ele>477.91</ele>
        <time>2014-06-26T10:09:29Z</time>
      </trkpt>
      <trkpt lat="43.07366" lon="-0.06028">
        <ele>476.95</ele>
        <time>2014-06-26T10:09:42Z</time>
      </trkpt>
      <trkpt lat="43.07353" lon="-0.06048">
        <ele>476.47</ele>
        <time>2014-06-26T10:09:57Z</time>
      </trkpt>
      <trkpt lat="43.07342" lon="-0.06065">
        <ele>476.47</ele>
        <time>2014-06-26T10:10:13Z</time>
      </trkpt>
      <trkpt lat="43.07334" lon="-0.06084">
        <ele>476.47</ele>
        <time>2014-06-26T10:10:30Z</time>
      </trkpt>
      <trkpt lat="43.07326" lon="-0.06105">
        <ele>477.91</ele>
        <time>2014-06-26T10:10:49Z</time>
      </trkpt>
      <trkpt lat="43.07325" lon="-0.0611">
        <ele>477.91</ele>
        <time>2014-06-26T10:10:54Z</time>
      </trkpt>
      <trkpt lat="43.07324" lon="-0.06116">
        <ele>478.39</ele>
        <time>2014-06-26T10:10:58Z</time>
      </trkpt>
      <trkpt lat="43.0732" lon="-0.06134">
        <ele>478.39</ele>
        <time>2014-06-26T10:11:09Z</time>
      </trkpt>
      <trkpt lat="43.07318" lon="-0.06139">
        <ele>477.91</ele>
        <time>2014-06-26T10:11:13Z</time>
      </trkpt>
      <trkpt lat="43.07312" lon="-0.06161">
        <ele>478.87</ele>
        <time>2014-06-26T10:11:30Z</time>
      </trkpt>
      <trkpt lat="43.07312" lon="-0.06163">
        <ele>479.35</ele>
        <time>2014-06-26T10:11:31Z</time>
      </trkpt>
      <trkpt lat="43.0731" lon="-0.06181">
        <ele>479.35</ele>
        <time>2014-06-26T10:11:45Z</time>
      </trkpt>
      <trkpt lat="43.07309" lon="-0.06188">
        <ele>479.35</ele>
        <time>2014-06-26T10:11:50Z</time>
      </trkpt>
      <trkpt lat="43.07307" lon="-0.06206">
        <ele>478.87</ele>
        <time>2014-06-26T10:12:02Z</time>
      </trkpt>
      <trkpt lat="43.07304" lon="-0.06222">
        <ele>479.35</ele>
        <time>2014-06-26T10:12:12Z</time>
      </trkpt>
      <trkpt lat="43.07303" lon="-0.06242">
        <ele>478.39</ele>
        <time>2014-06-26T10:12:25Z</time>
      </trkpt>
      <trkpt lat="43.07299" lon="-0.06263">
        <ele>478.87</ele>
        <time>2014-06-26T10:12:39Z</time>
      </trkpt>
      <trkpt lat="43.07295" lon="-0.06282">
        <ele>478.87</ele>
        <time>2014-06-26T10:12:51Z</time>
      </trkpt>
      <trkpt lat="43.07294" lon="-0.06297">
        <ele>479.35</ele>
        <time>2014-06-26T10:13:03Z</time>
      </trkpt>
      <trkpt lat="43.07294" lon="-0.06301">
        <ele>479.35</ele>
        <time>2014-06-26T10:13:05Z</time>
      </trkpt>
      <trkpt lat="43.07295" lon="-0.06308">
        <ele>479.35</ele>
        <time>2014-06-26T10:13:10Z</time>
      </trkpt>
      <trkpt lat="43.07295" lon="-0.06314">
        <ele>479.84</ele>
        <time>2014-06-26T10:13:14Z</time>
      </trkpt>
      <trkpt lat="43.07297" lon="-0.06324">
        <ele>479.84</ele>
        <time>2014-06-26T10:13:21Z</time>
      </trkpt>
      <trkpt lat="43.07297" lon="-0.06348">
        <ele>479.35</ele>
        <time>2014-06-26T10:13:37Z</time>
      </trkpt>
      <trkpt lat="43.07297" lon="-0.06371">
        <ele>479.35</ele>
        <time>2014-06-26T10:13:51Z</time>
      </trkpt>
      <trkpt lat="43.07293" lon="-0.06388">
        <ele>478.87</ele>
        <time>2014-06-26T10:14:01Z</time>
      </trkpt>
      <trkpt lat="43.07293" lon="-0.06392">
        <ele>479.35</ele>
        <time>2014-06-26T10:14:03Z</time>
      </trkpt>
      <trkpt lat="43.07292" lon="-0.06395">
        <ele>479.35</ele>
        <time>2014-06-26T10:14:06Z</time>
      </trkpt>
      <trkpt lat="43.07292" lon="-0.06403">
        <ele>479.35</ele>
        <time>2014-06-26T10:14:13Z</time>
      </trkpt>
      <trkpt lat="43.07291" lon="-0.06416">
        <ele>479.35</ele>
        <time>2014-06-26T10:14:22Z</time>
      </trkpt>
      <trkpt lat="43.07292" lon="-0.06421">
        <ele>479.35</ele>
        <time>2014-06-26T10:14:36Z</time>
      </trkpt>
      <trkpt lat="43.07292" lon="-0.06422">
        <ele>478.87</ele>
        <time>2014-06-26T10:14:41Z</time>
      </trkpt>
      <trkpt lat="43.0729" lon="-0.06431">
        <ele>479.35</ele>
        <time>2014-06-26T10:14:47Z</time>
      </trkpt>
      <trkpt lat="43.07287" lon="-0.06452">
        <ele>478.87</ele>
        <time>2014-06-26T10:15:02Z</time>
      </trkpt>
      <trkpt lat="43.07286" lon="-0.06478">
        <ele>478.87</ele>
        <time>2014-06-26T10:15:19Z</time>
      </trkpt>
      <trkpt lat="43.07285" lon="-0.0648">
        <ele>479.35</ele>
        <time>2014-06-26T10:15:20Z</time>
      </trkpt>
      <trkpt lat="43.07282" lon="-0.06483">
        <ele>479.84</ele>
        <time>2014-06-26T10:15:23Z</time>
      </trkpt>
      <trkpt lat="43.07278" lon="-0.06487">
        <ele>480.32</ele>
        <time>2014-06-26T10:15:27Z</time>
      </trkpt>
      <trkpt lat="43.07268" lon="-0.06487">
        <ele>480.8</ele>
        <time>2014-06-26T10:15:37Z</time>
      </trkpt>
      <trkpt lat="43.07265" lon="-0.06487">
        <ele>481.28</ele>
        <time>2014-06-26T10:15:41Z</time>
      </trkpt>
      <trkpt lat="43.07261" lon="-0.06487">
        <ele>481.28</ele>
        <time>2014-06-26T10:15:44Z</time>
      </trkpt>
      <trkpt lat="43.07254" lon="-0.06485">
        <ele>482.72</ele>
        <time>2014-06-26T10:15:52Z</time>
      </trkpt>
      <trkpt lat="43.07249" lon="-0.06483">
        <ele>483.2</ele>
        <time>2014-06-26T10:15:57Z</time>
      </trkpt>
      <trkpt lat="43.07245" lon="-0.06481">
        <ele>483.68</ele>
        <time>2014-06-26T10:16:02Z</time>
      </trkpt>
      <trkpt lat="43.07236" lon="-0.06476">
        <ele>484.64</ele>
        <time>2014-06-26T10:16:11Z</time>
      </trkpt>
      <trkpt lat="43.0723" lon="-0.06474">
        <ele>485.12</ele>
        <time>2014-06-26T10:16:16Z</time>
      </trkpt>
      <trkpt lat="43.07214" lon="-0.06466">
        <ele>486.56</ele>
        <time>2014-06-26T10:16:34Z</time>
      </trkpt>
      <trkpt lat="43.07213" lon="-0.06466">
        <ele>487.05</ele>
        <time>2014-06-26T10:16:35Z</time>
      </trkpt>
      <trkpt lat="43.07202" lon="-0.06463">
        <ele>488.01</ele>
        <time>2014-06-26T10:16:47Z</time>
      </trkpt>
      <trkpt lat="43.07195" lon="-0.06461">
        <ele>488.97</ele>
        <time>2014-06-26T10:16:54Z</time>
      </trkpt>
      <trkpt lat="43.07182" lon="-0.06454">
        <ele>489.45</ele>
        <time>2014-06-26T10:17:07Z</time>
      </trkpt>
      <trkpt lat="43.07169" lon="-0.06456">
        <ele>490.89</ele>
        <time>2014-06-26T10:17:22Z</time>
      </trkpt>
      <trkpt lat="43.07162" lon="-0.06457">
        <ele>491.85</ele>
        <time>2014-06-26T10:17:30Z</time>
      </trkpt>
      <trkpt lat="43.07155" lon="-0.06458">
        <ele>491.85</ele>
        <time>2014-06-26T10:17:35Z</time>
      </trkpt>
      <trkpt lat="43.0715" lon="-0.06457">
        <ele>492.33</ele>
        <time>2014-06-26T10:17:39Z</time>
      </trkpt>
      <trkpt lat="43.07138" lon="-0.06453">
        <ele>493.29</ele>
        <time>2014-06-26T10:17:52Z</time>
      </trkpt>
      <trkpt lat="43.07124" lon="-0.06453">
        <ele>493.77</ele>
        <time>2014-06-26T10:18:05Z</time>
      </trkpt>
      <trkpt lat="43.07119" lon="-0.06453">
        <ele>494.26</ele>
        <time>2014-06-26T10:18:10Z</time>
      </trkpt>
      <trkpt lat="43.07107" lon="-0.06458">
        <ele>495.22</ele>
        <time>2014-06-26T10:18:23Z</time>
      </trkpt>
      <trkpt lat="43.07093" lon="-0.06474">
        <ele>495.22</ele>
        <time>2014-06-26T10:18:40Z</time>
      </trkpt>
      <trkpt lat="43.07079" lon="-0.06486">
        <ele>495.22</ele>
        <time>2014-06-26T10:18:57Z</time>
      </trkpt>
      <trkpt lat="43.07069" lon="-0.06492">
        <ele>496.18</ele>
        <time>2014-06-26T10:19:09Z</time>
      </trkpt>
      <trkpt lat="43.07062" lon="-0.06508">
        <ele>497.62</ele>
        <time>2014-06-26T10:19:23Z</time>
      </trkpt>
      <trkpt lat="43.07053" lon="-0.06519">
        <ele>498.58</ele>
        <time>2014-06-26T10:19:35Z</time>
      </trkpt>
      <trkpt lat="43.07047" lon="-0.06522">
        <ele>499.54</ele>
        <time>2014-06-26T10:19:41Z</time>
      </trkpt>
      <trkpt lat="43.07038" lon="-0.06528">
        <ele>500.5</ele>
        <time>2014-06-26T10:19:51Z</time>
      </trkpt>
      <trkpt lat="43.07033" lon="-0.06532">
        <ele>500.98</ele>
        <time>2014-06-26T10:19:57Z</time>
      </trkpt>
      <trkpt lat="43.07031" lon="-0.06533">
        <ele>501.46</ele>
        <time>2014-06-26T10:20:00Z</time>
      </trkpt>
      <trkpt lat="43.07025" lon="-0.06537">
        <ele>502.91</ele>
        <time>2014-06-26T10:20:09Z</time>
      </trkpt>
      <trkpt lat="43.07013" lon="-0.06537">
        <ele>503.39</ele>
        <time>2014-06-26T10:20:25Z</time>
      </trkpt>
      <trkpt lat="43.07" lon="-0.06531">
        <ele>503.39</ele>
        <time>2014-06-26T10:20:42Z</time>
      </trkpt>
      <trkpt lat="43.0698" lon="-0.06518">
        <ele>502.91</ele>
        <time>2014-06-26T10:21:05Z</time>
      </trkpt>
      <trkpt lat="43.06977" lon="-0.06526">
        <ele>503.39</ele>
        <time>2014-06-26T10:21:13Z</time>
      </trkpt>
      <trkpt lat="43.06975" lon="-0.0654">
        <ele>504.35</ele>
        <time>2014-06-26T10:21:23Z</time>
      </trkpt>
      <trkpt lat="43.06974" lon="-0.06541">
        <ele>504.35</ele>
        <time>2014-06-26T10:21:24Z</time>
      </trkpt>
      <trkpt lat="43.06966" lon="-0.06543">
        <ele>505.31</ele>
        <time>2014-06-26T10:21:35Z</time>
      </trkpt>
      <trkpt lat="43.06966" lon="-0.06543">
        <ele>505.79</ele>
        <time>2014-06-26T10:21:50Z</time>
      </trkpt>
      <trkpt lat="43.06965" lon="-0.06543">
        <ele>505.31</ele>
        <time>2014-06-26T10:22:07Z</time>
      </trkpt>
      <trkpt lat="43.06965" lon="-0.06543">
        <ele>504.83</ele>
        <time>2014-06-26T10:22:28Z</time>
      </trkpt>
      <trkpt lat="43.06966" lon="-0.06544">
        <ele>504.83</ele>
        <time>2014-06-26T10:22:41Z</time>
      </trkpt>
      <trkpt lat="43.06966" lon="-0.06545">
        <ele>505.31</ele>
        <time>2014-06-26T10:22:51Z</time>
      </trkpt>
      <trkpt lat="43.06966" lon="-0.06545">
        <ele>505.31</ele>
        <time>2014-06-26T10:23:03Z</time>
      </trkpt>
      <trkpt lat="43.06966" lon="-0.06544">
        <ele>504.83</ele>
        <time>2014-06-26T10:23:21Z</time>
      </trkpt>
      <trkpt lat="43.06968" lon="-0.0655">
        <ele>504.35</ele>
        <time>2014-06-26T10:23:38Z</time>
      </trkpt>
      <trkpt lat="43.06966" lon="-0.06552">
        <ele>503.39</ele>
        <time>2014-06-26T10:23:57Z</time>
      </trkpt>
      <trkpt lat="43.06966" lon="-0.06552">
        <ele>505.79</ele>
        <time>2014-06-26T10:23:58Z</time>
      </trkpt>
      <trkpt lat="43.06969" lon="-0.06551">
        <ele>504.35</ele>
        <time>2014-06-26T10:24:19Z</time>
      </trkpt>
      <trkpt lat="43.06965" lon="-0.06546">
        <ele>504.83</ele>
        <time>2014-06-26T10:24:32Z</time>
      </trkpt>
      <trkpt lat="43.06964" lon="-0.06545">
        <ele>499.54</ele>
        <time>2014-06-26T10:24:35Z</time>
      </trkpt>
      <trkpt lat="43.06964" lon="-0.06545">
        <ele>503.87</ele>
        <time>2014-06-26T10:24:36Z</time>
      </trkpt>
      <trkpt lat="43.06964" lon="-0.06545">
        <ele>508.19</ele>
        <time>2014-06-26T10:24:38Z</time>
      </trkpt>
      <trkpt lat="43.06965" lon="-0.06545">
        <ele>503.39</ele>
        <time>2014-06-26T10:24:41Z</time>
      </trkpt>
      <trkpt lat="43.06965" lon="-0.06545">
        <ele>504.83</ele>
        <time>2014-06-26T10:24:43Z</time>
      </trkpt>
      <trkpt lat="43.06969" lon="-0.06546">
        <ele>494.74</ele>
        <time>2014-06-26T10:24:46Z</time>
      </trkpt>
      <trkpt lat="43.0697" lon="-0.06546">
        <ele>505.31</ele>
        <time>2014-06-26T10:24:47Z</time>
      </trkpt>
    </trkseg>
  </trk>
</gpx>